<?xml version="1.0" encoding="UTF-8" standalone="no" ?>
<gpx xmlns="http://www.topografix.com/GPX/1/1" xmlns:xsi="http://www.w3.org/2001/XMLSchema-instance" xsi:schemaLocation="http://www.topografix.com/GPX/1/1 http://www.topografix.com/GPX/1/1/gpx.xsd" version="1.1" creator="VisuGPX - https://www.visugpx.com">
  <metadata>
    <name>20221013</name>
  </metadata>
  <trk>
    <name><![CDATA[Le Goulet V3]]></name>
    <extensions>
      <line xmlns="http://www.topografix.com/GPX/gpx_style/0/2">
        <color>0000FF</color>
        <width>4</width>
      </line>
    </extensions>
    <trkseg>
      <trkpt lat="49.14156" lon="1.41665">
        <ele>19</ele>
        <time>2022-08-15T08:40:42+02:00</time>
      </trkpt>
      <trkpt lat="49.1415" lon="1.41659">
        <ele>20</ele>
        <time>2022-08-15T08:40:57+02:00</time>
      </trkpt>
      <trkpt lat="49.14142" lon="1.41669">
        <ele>22</ele>
        <time>2022-08-15T08:41:12+02:00</time>
      </trkpt>
      <trkpt lat="49.14138" lon="1.41659">
        <ele>23</ele>
        <time>2022-08-15T08:41:25+02:00</time>
      </trkpt>
      <trkpt lat="49.1414" lon="1.41654">
        <ele>23</ele>
        <time>2022-08-15T08:41:30+02:00</time>
      </trkpt>
      <trkpt lat="49.14134" lon="1.41644">
        <ele>24</ele>
        <time>2022-08-15T08:41:44+02:00</time>
      </trkpt>
      <trkpt lat="49.14126" lon="1.41628">
        <ele>26</ele>
        <time>2022-08-15T08:41:58+02:00</time>
      </trkpt>
      <trkpt lat="49.14122" lon="1.4162">
        <ele>27</ele>
        <time>2022-08-15T08:42:05+02:00</time>
      </trkpt>
      <trkpt lat="49.14111" lon="1.41593">
        <ele>29</ele>
        <time>2022-08-15T08:42:21+02:00</time>
      </trkpt>
      <trkpt lat="49.14107" lon="1.4158">
        <ele>30</ele>
        <time>2022-08-15T08:42:28+02:00</time>
      </trkpt>
      <trkpt lat="49.14098" lon="1.41564">
        <ele>32</ele>
        <time>2022-08-15T08:42:44+02:00</time>
      </trkpt>
      <trkpt lat="49.14095" lon="1.41547">
        <ele>32</ele>
        <time>2022-08-15T08:42:58+02:00</time>
      </trkpt>
      <trkpt lat="49.14091" lon="1.41528">
        <ele>33</ele>
        <time>2022-08-15T08:43:11+02:00</time>
      </trkpt>
      <trkpt lat="49.1409" lon="1.4152">
        <ele>33</ele>
        <time>2022-08-15T08:43:26+02:00</time>
      </trkpt>
      <trkpt lat="49.14089" lon="1.41515">
        <ele>33</ele>
        <time>2022-08-15T08:43:42+02:00</time>
      </trkpt>
      <trkpt lat="49.14087" lon="1.41503">
        <ele>33</ele>
        <time>2022-08-15T08:43:59+02:00</time>
      </trkpt>
      <trkpt lat="49.14084" lon="1.41484">
        <ele>33</ele>
        <time>2022-08-15T08:44:15+02:00</time>
      </trkpt>
      <trkpt lat="49.1408" lon="1.41471">
        <ele>34</ele>
        <time>2022-08-15T08:44:32+02:00</time>
      </trkpt>
      <trkpt lat="49.14075" lon="1.41459">
        <ele>35</ele>
        <time>2022-08-15T08:44:48+02:00</time>
      </trkpt>
      <trkpt lat="49.1407" lon="1.41448">
        <ele>36</ele>
        <time>2022-08-15T08:45:02+02:00</time>
      </trkpt>
      <trkpt lat="49.14059" lon="1.41433">
        <ele>39</ele>
        <time>2022-08-15T08:45:18+02:00</time>
      </trkpt>
      <trkpt lat="49.14047" lon="1.41422">
        <ele>42</ele>
        <time>2022-08-15T08:45:32+02:00</time>
      </trkpt>
      <trkpt lat="49.14039" lon="1.4141">
        <ele>43</ele>
        <time>2022-08-15T08:45:46+02:00</time>
      </trkpt>
      <trkpt lat="49.1403" lon="1.41399">
        <ele>44</ele>
        <time>2022-08-15T08:45:59+02:00</time>
      </trkpt>
      <trkpt lat="49.14027" lon="1.41394">
        <ele>45</ele>
        <time>2022-08-15T08:46:04+02:00</time>
      </trkpt>
      <trkpt lat="49.14018" lon="1.41386">
        <ele>46</ele>
        <time>2022-08-15T08:46:19+02:00</time>
      </trkpt>
      <trkpt lat="49.14008" lon="1.41374">
        <ele>47</ele>
        <time>2022-08-15T08:46:34+02:00</time>
      </trkpt>
      <trkpt lat="49.13998" lon="1.41368">
        <ele>48</ele>
        <time>2022-08-15T08:46:47+02:00</time>
      </trkpt>
      <trkpt lat="49.13984" lon="1.41361">
        <ele>50</ele>
        <time>2022-08-15T08:47:04+02:00</time>
      </trkpt>
      <trkpt lat="49.1397" lon="1.41353">
        <ele>51</ele>
        <time>2022-08-15T08:47:20+02:00</time>
      </trkpt>
      <trkpt lat="49.13968" lon="1.41356">
        <ele>52</ele>
        <time>2022-08-15T08:47:39+02:00</time>
      </trkpt>
      <trkpt lat="49.13959" lon="1.41353">
        <ele>53</ele>
        <time>2022-08-15T08:48:07+02:00</time>
      </trkpt>
      <trkpt lat="49.13948" lon="1.41348">
        <ele>55</ele>
        <time>2022-08-15T08:48:20+02:00</time>
      </trkpt>
      <trkpt lat="49.13934" lon="1.41339">
        <ele>56</ele>
        <time>2022-08-15T08:48:36+02:00</time>
      </trkpt>
      <trkpt lat="49.13922" lon="1.41333">
        <ele>58</ele>
        <time>2022-08-15T08:48:50+02:00</time>
      </trkpt>
      <trkpt lat="49.1391" lon="1.41328">
        <ele>59</ele>
        <time>2022-08-15T08:49:04+02:00</time>
      </trkpt>
      <trkpt lat="49.13898" lon="1.41324">
        <ele>61</ele>
        <time>2022-08-15T08:49:19+02:00</time>
      </trkpt>
      <trkpt lat="49.13884" lon="1.41318">
        <ele>62</ele>
        <time>2022-08-15T08:49:34+02:00</time>
      </trkpt>
      <trkpt lat="49.13873" lon="1.41312">
        <ele>63</ele>
        <time>2022-08-15T08:49:47+02:00</time>
      </trkpt>
      <trkpt lat="49.13857" lon="1.41308">
        <ele>66</ele>
        <time>2022-08-15T08:50:03+02:00</time>
      </trkpt>
      <trkpt lat="49.13848" lon="1.4131">
        <ele>68</ele>
        <time>2022-08-15T08:50:17+02:00</time>
      </trkpt>
      <trkpt lat="49.13831" lon="1.4131">
        <ele>71</ele>
        <time>2022-08-15T08:50:33+02:00</time>
      </trkpt>
      <trkpt lat="49.13816" lon="1.4131">
        <ele>72</ele>
        <time>2022-08-15T08:50:46+02:00</time>
      </trkpt>
      <trkpt lat="49.13804" lon="1.41315">
        <ele>74</ele>
        <time>2022-08-15T08:51:00+02:00</time>
      </trkpt>
      <trkpt lat="49.13806" lon="1.41333">
        <ele>77</ele>
        <time>2022-08-15T08:51:14+02:00</time>
      </trkpt>
      <trkpt lat="49.13819" lon="1.41336">
        <ele>77</ele>
        <time>2022-08-15T08:51:27+02:00</time>
      </trkpt>
      <trkpt lat="49.13832" lon="1.41338">
        <ele>77</ele>
        <time>2022-08-15T08:51:42+02:00</time>
      </trkpt>
      <trkpt lat="49.13835" lon="1.41352">
        <ele>79</ele>
        <time>2022-08-15T08:51:56+02:00</time>
      </trkpt>
      <trkpt lat="49.13824" lon="1.41355">
        <ele>81</ele>
        <time>2022-08-15T08:52:11+02:00</time>
      </trkpt>
      <trkpt lat="49.13808" lon="1.41358">
        <ele>82</ele>
        <time>2022-08-15T08:52:26+02:00</time>
      </trkpt>
      <trkpt lat="49.13793" lon="1.41368">
        <ele>84</ele>
        <time>2022-08-15T08:52:43+02:00</time>
      </trkpt>
      <trkpt lat="49.13781" lon="1.41375">
        <ele>86</ele>
        <time>2022-08-15T08:52:57+02:00</time>
      </trkpt>
      <trkpt lat="49.13766" lon="1.41383">
        <ele>88</ele>
        <time>2022-08-15T08:53:12+02:00</time>
      </trkpt>
      <trkpt lat="49.13752" lon="1.41393">
        <ele>90</ele>
        <time>2022-08-15T08:53:27+02:00</time>
      </trkpt>
      <trkpt lat="49.13741" lon="1.41392">
        <ele>90</ele>
        <time>2022-08-15T08:53:45+02:00</time>
      </trkpt>
      <trkpt lat="49.13733" lon="1.41391">
        <ele>89</ele>
        <time>2022-08-15T08:54:04+02:00</time>
      </trkpt>
      <trkpt lat="49.13723" lon="1.41405">
        <ele>91</ele>
        <time>2022-08-15T08:54:18+02:00</time>
      </trkpt>
      <trkpt lat="49.13711" lon="1.41422">
        <ele>93</ele>
        <time>2022-08-15T08:54:33+02:00</time>
      </trkpt>
      <trkpt lat="49.13699" lon="1.41427">
        <ele>93</ele>
        <time>2022-08-15T08:54:47+02:00</time>
      </trkpt>
      <trkpt lat="49.13685" lon="1.41443">
        <ele>94</ele>
        <time>2022-08-15T08:55:02+02:00</time>
      </trkpt>
      <trkpt lat="49.13673" lon="1.41456">
        <ele>96</ele>
        <time>2022-08-15T08:55:14+02:00</time>
      </trkpt>
      <trkpt lat="49.13662" lon="1.41465">
        <ele>96</ele>
        <time>2022-08-15T08:55:29+02:00</time>
      </trkpt>
      <trkpt lat="49.1365" lon="1.41475">
        <ele>98</ele>
        <time>2022-08-15T08:55:45+02:00</time>
      </trkpt>
      <trkpt lat="49.13634" lon="1.41494">
        <ele>100</ele>
        <time>2022-08-15T08:56:03+02:00</time>
      </trkpt>
      <trkpt lat="49.13624" lon="1.415">
        <ele>100</ele>
        <time>2022-08-15T08:56:16+02:00</time>
      </trkpt>
      <trkpt lat="49.13611" lon="1.41507">
        <ele>100</ele>
        <time>2022-08-15T08:56:30+02:00</time>
      </trkpt>
      <trkpt lat="49.13598" lon="1.41522">
        <ele>101</ele>
        <time>2022-08-15T08:56:48+02:00</time>
      </trkpt>
      <trkpt lat="49.13591" lon="1.41531">
        <ele>102</ele>
        <time>2022-08-15T08:57:02+02:00</time>
      </trkpt>
      <trkpt lat="49.13579" lon="1.41539">
        <ele>102</ele>
        <time>2022-08-15T08:57:16+02:00</time>
      </trkpt>
      <trkpt lat="49.13564" lon="1.4155">
        <ele>104</ele>
        <time>2022-08-15T08:57:32+02:00</time>
      </trkpt>
      <trkpt lat="49.13556" lon="1.41556">
        <ele>105</ele>
        <time>2022-08-15T08:57:46+02:00</time>
      </trkpt>
      <trkpt lat="49.13541" lon="1.41569">
        <ele>106</ele>
        <time>2022-08-15T08:58:02+02:00</time>
      </trkpt>
      <trkpt lat="49.1353" lon="1.41589">
        <ele>108</ele>
        <time>2022-08-15T08:58:19+02:00</time>
      </trkpt>
      <trkpt lat="49.13512" lon="1.4161">
        <ele>110</ele>
        <time>2022-08-15T08:58:35+02:00</time>
      </trkpt>
      <trkpt lat="49.135" lon="1.41623">
        <ele>111</ele>
        <time>2022-08-15T08:58:49+02:00</time>
      </trkpt>
      <trkpt lat="49.13484" lon="1.41639">
        <ele>113</ele>
        <time>2022-08-15T08:59:03+02:00</time>
      </trkpt>
      <trkpt lat="49.13474" lon="1.41646">
        <ele>114</ele>
        <time>2022-08-15T08:59:17+02:00</time>
      </trkpt>
      <trkpt lat="49.13466" lon="1.41651">
        <ele>114</ele>
        <time>2022-08-15T08:59:30+02:00</time>
      </trkpt>
      <trkpt lat="49.13451" lon="1.41666">
        <ele>116</ele>
        <time>2022-08-15T08:59:45+02:00</time>
      </trkpt>
      <trkpt lat="49.13441" lon="1.41674">
        <ele>116</ele>
        <time>2022-08-15T09:00:00+02:00</time>
      </trkpt>
      <trkpt lat="49.13427" lon="1.41683">
        <ele>117</ele>
        <time>2022-08-15T09:00:17+02:00</time>
      </trkpt>
      <trkpt lat="49.13416" lon="1.41694">
        <ele>118</ele>
        <time>2022-08-15T09:00:33+02:00</time>
      </trkpt>
      <trkpt lat="49.13404" lon="1.41707">
        <ele>120</ele>
        <time>2022-08-15T09:00:49+02:00</time>
      </trkpt>
      <trkpt lat="49.13396" lon="1.41719">
        <ele>121</ele>
        <time>2022-08-15T09:01:04+02:00</time>
      </trkpt>
      <trkpt lat="49.13381" lon="1.41733">
        <ele>122</ele>
        <time>2022-08-15T09:01:22+02:00</time>
      </trkpt>
      <trkpt lat="49.13368" lon="1.41745">
        <ele>123</ele>
        <time>2022-08-15T09:01:36+02:00</time>
      </trkpt>
      <trkpt lat="49.13361" lon="1.4175">
        <ele>124</ele>
        <time>2022-08-15T09:01:52+02:00</time>
      </trkpt>
      <trkpt lat="49.13349" lon="1.41757">
        <ele>124</ele>
        <time>2022-08-15T09:02:07+02:00</time>
      </trkpt>
      <trkpt lat="49.13339" lon="1.4177">
        <ele>125</ele>
        <time>2022-08-15T09:02:24+02:00</time>
      </trkpt>
      <trkpt lat="49.1332" lon="1.41788">
        <ele>126</ele>
        <time>2022-08-15T09:02:42+02:00</time>
      </trkpt>
      <trkpt lat="49.13312" lon="1.41795">
        <ele>126</ele>
        <time>2022-08-15T09:02:52+02:00</time>
      </trkpt>
      <trkpt lat="49.13299" lon="1.41806">
        <ele>127</ele>
        <time>2022-08-15T09:03:07+02:00</time>
      </trkpt>
      <trkpt lat="49.13283" lon="1.41823">
        <ele>129</ele>
        <time>2022-08-15T09:03:23+02:00</time>
      </trkpt>
      <trkpt lat="49.13271" lon="1.41833">
        <ele>130</ele>
        <time>2022-08-15T09:03:37+02:00</time>
      </trkpt>
      <trkpt lat="49.13261" lon="1.41841">
        <ele>131</ele>
        <time>2022-08-15T09:03:50+02:00</time>
      </trkpt>
      <trkpt lat="49.13258" lon="1.41845">
        <ele>131</ele>
        <time>2022-08-15T09:04:05+02:00</time>
      </trkpt>
      <trkpt lat="49.1325" lon="1.41852">
        <ele>132</ele>
        <time>2022-08-15T09:04:18+02:00</time>
      </trkpt>
      <trkpt lat="49.13236" lon="1.41864">
        <ele>132</ele>
        <time>2022-08-15T09:04:33+02:00</time>
      </trkpt>
      <trkpt lat="49.13226" lon="1.41874">
        <ele>132</ele>
        <time>2022-08-15T09:04:47+02:00</time>
      </trkpt>
      <trkpt lat="49.13213" lon="1.41886">
        <ele>132</ele>
        <time>2022-08-15T09:05:01+02:00</time>
      </trkpt>
      <trkpt lat="49.13201" lon="1.41899">
        <ele>132</ele>
        <time>2022-08-15T09:05:15+02:00</time>
      </trkpt>
      <trkpt lat="49.13183" lon="1.4191">
        <ele>132</ele>
        <time>2022-08-15T09:05:29+02:00</time>
      </trkpt>
      <trkpt lat="49.13168" lon="1.41919">
        <ele>132</ele>
        <time>2022-08-15T09:05:44+02:00</time>
      </trkpt>
      <trkpt lat="49.13152" lon="1.41941">
        <ele>131</ele>
        <time>2022-08-15T09:05:58+02:00</time>
      </trkpt>
      <trkpt lat="49.13134" lon="1.41962">
        <ele>130</ele>
        <time>2022-08-15T09:06:13+02:00</time>
      </trkpt>
      <trkpt lat="49.13122" lon="1.41967">
        <ele>130</ele>
        <time>2022-08-15T09:06:25+02:00</time>
      </trkpt>
      <trkpt lat="49.13115" lon="1.41972">
        <ele>130</ele>
        <time>2022-08-15T09:06:33+02:00</time>
      </trkpt>
      <trkpt lat="49.13104" lon="1.41984">
        <ele>129</ele>
        <time>2022-08-15T09:06:46+02:00</time>
      </trkpt>
      <trkpt lat="49.13102" lon="1.4201">
        <ele>128</ele>
        <time>2022-08-15T09:07:02+02:00</time>
      </trkpt>
      <trkpt lat="49.13102" lon="1.42024">
        <ele>128</ele>
        <time>2022-08-15T09:07:10+02:00</time>
      </trkpt>
      <trkpt lat="49.13105" lon="1.42033">
        <ele>127</ele>
        <time>2022-08-15T09:07:15+02:00</time>
      </trkpt>
      <trkpt lat="49.13111" lon="1.42057">
        <ele>125</ele>
        <time>2022-08-15T09:07:30+02:00</time>
      </trkpt>
      <trkpt lat="49.13111" lon="1.42063">
        <ele>125</ele>
        <time>2022-08-15T09:07:46+02:00</time>
      </trkpt>
      <trkpt lat="49.13113" lon="1.42079">
        <ele>124</ele>
        <time>2022-08-15T09:08:14+02:00</time>
      </trkpt>
      <trkpt lat="49.13113" lon="1.42086">
        <ele>123</ele>
        <time>2022-08-15T09:08:30+02:00</time>
      </trkpt>
      <trkpt lat="49.13114" lon="1.42102">
        <ele>121</ele>
        <time>2022-08-15T09:08:43+02:00</time>
      </trkpt>
      <trkpt lat="49.13111" lon="1.42116">
        <ele>119</ele>
        <time>2022-08-15T09:08:58+02:00</time>
      </trkpt>
      <trkpt lat="49.13105" lon="1.42132">
        <ele>118</ele>
        <time>2022-08-15T09:09:12+02:00</time>
      </trkpt>
      <trkpt lat="49.13099" lon="1.42147">
        <ele>117</ele>
        <time>2022-08-15T09:09:27+02:00</time>
      </trkpt>
      <trkpt lat="49.1309" lon="1.42167">
        <ele>117</ele>
        <time>2022-08-15T09:09:42+02:00</time>
      </trkpt>
      <trkpt lat="49.13078" lon="1.42189">
        <ele>115</ele>
        <time>2022-08-15T09:09:58+02:00</time>
      </trkpt>
      <trkpt lat="49.13068" lon="1.42207">
        <ele>113</ele>
        <time>2022-08-15T09:10:11+02:00</time>
      </trkpt>
      <trkpt lat="49.13057" lon="1.42214">
        <ele>114</ele>
        <time>2022-08-15T09:10:26+02:00</time>
      </trkpt>
      <trkpt lat="49.13046" lon="1.42226">
        <ele>114</ele>
        <time>2022-08-15T09:10:39+02:00</time>
      </trkpt>
      <trkpt lat="49.13036" lon="1.42239">
        <ele>114</ele>
        <time>2022-08-15T09:10:53+02:00</time>
      </trkpt>
      <trkpt lat="49.13025" lon="1.42259">
        <ele>113</ele>
        <time>2022-08-15T09:11:07+02:00</time>
      </trkpt>
      <trkpt lat="49.13018" lon="1.4227">
        <ele>111</ele>
        <time>2022-08-15T09:11:24+02:00</time>
      </trkpt>
      <trkpt lat="49.13011" lon="1.42278">
        <ele>111</ele>
        <time>2022-08-15T09:11:37+02:00</time>
      </trkpt>
      <trkpt lat="49.13001" lon="1.42289">
        <ele>110</ele>
        <time>2022-08-15T09:11:53+02:00</time>
      </trkpt>
      <trkpt lat="49.13002" lon="1.42289">
        <ele>110</ele>
        <time>2022-08-15T09:12:11+02:00</time>
      </trkpt>
      <trkpt lat="49.13005" lon="1.4229">
        <ele>109</ele>
        <time>2022-08-15T09:12:48+02:00</time>
      </trkpt>
      <trkpt lat="49.13005" lon="1.4229">
        <ele>109</ele>
        <time>2022-08-15T09:12:49+02:00</time>
      </trkpt>
      <trkpt lat="49.13003" lon="1.42296">
        <ele>108</ele>
        <time>2022-08-15T09:13:09+02:00</time>
      </trkpt>
      <trkpt lat="49.13" lon="1.423">
        <ele>108</ele>
        <time>2022-08-15T09:13:25+02:00</time>
      </trkpt>
      <trkpt lat="49.12996" lon="1.42304">
        <ele>107</ele>
        <time>2022-08-15T09:13:31+02:00</time>
      </trkpt>
      <trkpt lat="49.12981" lon="1.42319">
        <ele>105</ele>
        <time>2022-08-15T09:13:47+02:00</time>
      </trkpt>
      <trkpt lat="49.12975" lon="1.42329">
        <ele>104</ele>
        <time>2022-08-15T09:13:54+02:00</time>
      </trkpt>
      <trkpt lat="49.12964" lon="1.42343">
        <ele>102</ele>
        <time>2022-08-15T09:14:06+02:00</time>
      </trkpt>
      <trkpt lat="49.12954" lon="1.42357">
        <ele>100</ele>
        <time>2022-08-15T09:14:21+02:00</time>
      </trkpt>
      <trkpt lat="49.12945" lon="1.4237">
        <ele>97</ele>
        <time>2022-08-15T09:14:35+02:00</time>
      </trkpt>
      <trkpt lat="49.12937" lon="1.42379">
        <ele>96</ele>
        <time>2022-08-15T09:14:48+02:00</time>
      </trkpt>
      <trkpt lat="49.12927" lon="1.42394">
        <ele>94</ele>
        <time>2022-08-15T09:15:02+02:00</time>
      </trkpt>
      <trkpt lat="49.12914" lon="1.42411">
        <ele>91</ele>
        <time>2022-08-15T09:15:18+02:00</time>
      </trkpt>
      <trkpt lat="49.12903" lon="1.42426">
        <ele>87</ele>
        <time>2022-08-15T09:15:34+02:00</time>
      </trkpt>
      <trkpt lat="49.12892" lon="1.42441">
        <ele>84</ele>
        <time>2022-08-15T09:15:48+02:00</time>
      </trkpt>
      <trkpt lat="49.12884" lon="1.4245">
        <ele>83</ele>
        <time>2022-08-15T09:15:57+02:00</time>
      </trkpt>
      <trkpt lat="49.12873" lon="1.42469">
        <ele>80</ele>
        <time>2022-08-15T09:16:12+02:00</time>
      </trkpt>
      <trkpt lat="49.12863" lon="1.42486">
        <ele>78</ele>
        <time>2022-08-15T09:16:26+02:00</time>
      </trkpt>
      <trkpt lat="49.12853" lon="1.42499">
        <ele>77</ele>
        <time>2022-08-15T09:16:39+02:00</time>
      </trkpt>
      <trkpt lat="49.12842" lon="1.425">
        <ele>77</ele>
        <time>2022-08-15T09:16:52+02:00</time>
      </trkpt>
      <trkpt lat="49.12838" lon="1.42488">
        <ele>79</ele>
        <time>2022-08-15T09:17:05+02:00</time>
      </trkpt>
      <trkpt lat="49.12831" lon="1.42465">
        <ele>81</ele>
        <time>2022-08-15T09:17:19+02:00</time>
      </trkpt>
      <trkpt lat="49.12822" lon="1.42465">
        <ele>83</ele>
        <time>2022-08-15T09:17:37+02:00</time>
      </trkpt>
      <trkpt lat="49.1282" lon="1.4247">
        <ele>83</ele>
        <time>2022-08-15T09:17:51+02:00</time>
      </trkpt>
      <trkpt lat="49.12817" lon="1.42479">
        <ele>83</ele>
        <time>2022-08-15T09:18:00+02:00</time>
      </trkpt>
      <trkpt lat="49.12807" lon="1.42503">
        <ele>82</ele>
        <time>2022-08-15T09:18:16+02:00</time>
      </trkpt>
      <trkpt lat="49.12799" lon="1.42511">
        <ele>83</ele>
        <time>2022-08-15T09:18:27+02:00</time>
      </trkpt>
      <trkpt lat="49.12796" lon="1.42513">
        <ele>83</ele>
        <time>2022-08-15T09:18:40+02:00</time>
      </trkpt>
      <trkpt lat="49.12788" lon="1.42519">
        <ele>84</ele>
        <time>2022-08-15T09:18:55+02:00</time>
      </trkpt>
      <trkpt lat="49.12778" lon="1.42532">
        <ele>84</ele>
        <time>2022-08-15T09:19:09+02:00</time>
      </trkpt>
      <trkpt lat="49.12772" lon="1.42553">
        <ele>82</ele>
        <time>2022-08-15T09:19:21+02:00</time>
      </trkpt>
      <trkpt lat="49.12765" lon="1.42571">
        <ele>81</ele>
        <time>2022-08-15T09:19:35+02:00</time>
      </trkpt>
      <trkpt lat="49.12751" lon="1.42585">
        <ele>82</ele>
        <time>2022-08-15T09:19:48+02:00</time>
      </trkpt>
      <trkpt lat="49.1274" lon="1.42602">
        <ele>80</ele>
        <time>2022-08-15T09:20:03+02:00</time>
      </trkpt>
      <trkpt lat="49.12725" lon="1.4262">
        <ele>78</ele>
        <time>2022-08-15T09:20:19+02:00</time>
      </trkpt>
      <trkpt lat="49.12717" lon="1.42633">
        <ele>77</ele>
        <time>2022-08-15T09:20:32+02:00</time>
      </trkpt>
      <trkpt lat="49.12711" lon="1.42645">
        <ele>75</ele>
        <time>2022-08-15T09:20:46+02:00</time>
      </trkpt>
      <trkpt lat="49.1271" lon="1.4265">
        <ele>75</ele>
        <time>2022-08-15T09:20:49+02:00</time>
      </trkpt>
      <trkpt lat="49.12703" lon="1.42666">
        <ele>72</ele>
        <time>2022-08-15T09:21:03+02:00</time>
      </trkpt>
      <trkpt lat="49.12701" lon="1.42668">
        <ele>72</ele>
        <time>2022-08-15T09:21:06+02:00</time>
      </trkpt>
      <trkpt lat="49.1269" lon="1.42679">
        <ele>71</ele>
        <time>2022-08-15T09:21:19+02:00</time>
      </trkpt>
      <trkpt lat="49.12677" lon="1.42689">
        <ele>71</ele>
        <time>2022-08-15T09:21:36+02:00</time>
      </trkpt>
      <trkpt lat="49.12673" lon="1.42701">
        <ele>69</ele>
        <time>2022-08-15T09:21:50+02:00</time>
      </trkpt>
      <trkpt lat="49.12663" lon="1.42712">
        <ele>67</ele>
        <time>2022-08-15T09:22:07+02:00</time>
      </trkpt>
      <trkpt lat="49.12657" lon="1.42719">
        <ele>66</ele>
        <time>2022-08-15T09:22:23+02:00</time>
      </trkpt>
      <trkpt lat="49.1265" lon="1.42727">
        <ele>65</ele>
        <time>2022-08-15T09:22:37+02:00</time>
      </trkpt>
      <trkpt lat="49.12641" lon="1.42744">
        <ele>62</ele>
        <time>2022-08-15T09:22:55+02:00</time>
      </trkpt>
      <trkpt lat="49.12634" lon="1.42764">
        <ele>59</ele>
        <time>2022-08-15T09:23:11+02:00</time>
      </trkpt>
      <trkpt lat="49.12622" lon="1.42779">
        <ele>57</ele>
        <time>2022-08-15T09:23:26+02:00</time>
      </trkpt>
      <trkpt lat="49.12619" lon="1.42802">
        <ele>53</ele>
        <time>2022-08-15T09:23:43+02:00</time>
      </trkpt>
      <trkpt lat="49.12627" lon="1.42816">
        <ele>49</ele>
        <time>2022-08-15T09:23:57+02:00</time>
      </trkpt>
      <trkpt lat="49.12629" lon="1.42835">
        <ele>45</ele>
        <time>2022-08-15T09:24:15+02:00</time>
      </trkpt>
      <trkpt lat="49.12617" lon="1.4284">
        <ele>46</ele>
        <time>2022-08-15T09:24:28+02:00</time>
      </trkpt>
      <trkpt lat="49.12599" lon="1.42841">
        <ele>48</ele>
        <time>2022-08-15T09:24:44+02:00</time>
      </trkpt>
      <trkpt lat="49.12588" lon="1.42844">
        <ele>48</ele>
        <time>2022-08-15T09:24:57+02:00</time>
      </trkpt>
      <trkpt lat="49.12577" lon="1.42847">
        <ele>50</ele>
        <time>2022-08-15T09:25:11+02:00</time>
      </trkpt>
      <trkpt lat="49.12573" lon="1.42845">
        <ele>51</ele>
        <time>2022-08-15T09:25:28+02:00</time>
      </trkpt>
      <trkpt lat="49.12562" lon="1.42844">
        <ele>53</ele>
        <time>2022-08-15T09:25:44+02:00</time>
      </trkpt>
      <trkpt lat="49.12551" lon="1.4285">
        <ele>54</ele>
        <time>2022-08-15T09:25:58+02:00</time>
      </trkpt>
      <trkpt lat="49.12541" lon="1.42852">
        <ele>55</ele>
        <time>2022-08-15T09:26:12+02:00</time>
      </trkpt>
      <trkpt lat="49.12523" lon="1.42858">
        <ele>57</ele>
        <time>2022-08-15T09:26:29+02:00</time>
      </trkpt>
      <trkpt lat="49.12507" lon="1.42865">
        <ele>58</ele>
        <time>2022-08-15T09:26:45+02:00</time>
      </trkpt>
      <trkpt lat="49.12495" lon="1.42867">
        <ele>59</ele>
        <time>2022-08-15T09:26:57+02:00</time>
      </trkpt>
      <trkpt lat="49.12485" lon="1.42871">
        <ele>59</ele>
        <time>2022-08-15T09:27:11+02:00</time>
      </trkpt>
      <trkpt lat="49.1248" lon="1.42875">
        <ele>58</ele>
        <time>2022-08-15T09:27:19+02:00</time>
      </trkpt>
      <trkpt lat="49.12476" lon="1.42877">
        <ele>57</ele>
        <time>2022-08-15T09:27:22+02:00</time>
      </trkpt>
      <trkpt lat="49.12473" lon="1.4288">
        <ele>57</ele>
        <time>2022-08-15T09:27:25+02:00</time>
      </trkpt>
      <trkpt lat="49.12458" lon="1.4289">
        <ele>55</ele>
        <time>2022-08-15T09:27:40+02:00</time>
      </trkpt>
      <trkpt lat="49.12446" lon="1.42894">
        <ele>55</ele>
        <time>2022-08-15T09:27:52+02:00</time>
      </trkpt>
      <trkpt lat="49.12446" lon="1.42893">
        <ele>55</ele>
        <time>2022-08-15T09:28:06+02:00</time>
      </trkpt>
      <trkpt lat="49.12448" lon="1.42896">
        <ele>54</ele>
        <time>2022-08-15T09:28:19+02:00</time>
      </trkpt>
      <trkpt lat="49.12449" lon="1.42899">
        <ele>54</ele>
        <time>2022-08-15T09:28:33+02:00</time>
      </trkpt>
      <trkpt lat="49.12447" lon="1.42898">
        <ele>54</ele>
        <time>2022-08-15T09:28:55+02:00</time>
      </trkpt>
      <trkpt lat="49.12446" lon="1.42895">
        <ele>55</ele>
        <time>2022-08-15T09:29:12+02:00</time>
      </trkpt>
      <trkpt lat="49.12443" lon="1.42892">
        <ele>56</ele>
        <time>2022-08-15T09:29:33+02:00</time>
      </trkpt>
      <trkpt lat="49.12441" lon="1.4289">
        <ele>56</ele>
        <time>2022-08-15T09:29:57+02:00</time>
      </trkpt>
      <trkpt lat="49.12442" lon="1.42895">
        <ele>55</ele>
        <time>2022-08-15T09:30:14+02:00</time>
      </trkpt>
      <trkpt lat="49.12433" lon="1.42904">
        <ele>54</ele>
        <time>2022-08-15T09:30:30+02:00</time>
      </trkpt>
      <trkpt lat="49.12435" lon="1.42906">
        <ele>53</ele>
        <time>2022-08-15T09:30:58+02:00</time>
      </trkpt>
      <trkpt lat="49.12429" lon="1.42908">
        <ele>53</ele>
        <time>2022-08-15T09:31:15+02:00</time>
      </trkpt>
      <trkpt lat="49.12417" lon="1.4291">
        <ele>53</ele>
        <time>2022-08-15T09:31:31+02:00</time>
      </trkpt>
      <trkpt lat="49.12417" lon="1.42913">
        <ele>53</ele>
        <time>2022-08-15T09:31:51+02:00</time>
      </trkpt>
      <trkpt lat="49.12416" lon="1.42915">
        <ele>52</ele>
        <time>2022-08-15T09:32:11+02:00</time>
      </trkpt>
      <trkpt lat="49.12411" lon="1.42916">
        <ele>52</ele>
        <time>2022-08-15T09:32:25+02:00</time>
      </trkpt>
      <trkpt lat="49.124" lon="1.42918">
        <ele>51</ele>
        <time>2022-08-15T09:32:43+02:00</time>
      </trkpt>
      <trkpt lat="49.12382" lon="1.42924">
        <ele>50</ele>
        <time>2022-08-15T09:32:59+02:00</time>
      </trkpt>
      <trkpt lat="49.12371" lon="1.42926">
        <ele>49</ele>
        <time>2022-08-15T09:33:15+02:00</time>
      </trkpt>
      <trkpt lat="49.12359" lon="1.4293">
        <ele>49</ele>
        <time>2022-08-15T09:33:32+02:00</time>
      </trkpt>
      <trkpt lat="49.12353" lon="1.42931">
        <ele>48</ele>
        <time>2022-08-15T09:33:46+02:00</time>
      </trkpt>
      <trkpt lat="49.1235" lon="1.42932">
        <ele>48</ele>
        <time>2022-08-15T09:34:01+02:00</time>
      </trkpt>
      <trkpt lat="49.12343" lon="1.42934">
        <ele>48</ele>
        <time>2022-08-15T09:34:14+02:00</time>
      </trkpt>
      <trkpt lat="49.12328" lon="1.4294">
        <ele>47</ele>
        <time>2022-08-15T09:34:29+02:00</time>
      </trkpt>
      <trkpt lat="49.12306" lon="1.42948">
        <ele>48</ele>
        <time>2022-08-15T09:34:48+02:00</time>
      </trkpt>
      <trkpt lat="49.12287" lon="1.42954">
        <ele>48</ele>
        <time>2022-08-15T09:35:05+02:00</time>
      </trkpt>
      <trkpt lat="49.12284" lon="1.42955">
        <ele>48</ele>
        <time>2022-08-15T09:35:08+02:00</time>
      </trkpt>
      <trkpt lat="49.12271" lon="1.42957">
        <ele>49</ele>
        <time>2022-08-15T09:35:22+02:00</time>
      </trkpt>
      <trkpt lat="49.1226" lon="1.42961">
        <ele>49</ele>
        <time>2022-08-15T09:35:34+02:00</time>
      </trkpt>
      <trkpt lat="49.12244" lon="1.42966">
        <ele>49</ele>
        <time>2022-08-15T09:35:48+02:00</time>
      </trkpt>
      <trkpt lat="49.12229" lon="1.42972">
        <ele>49</ele>
        <time>2022-08-15T09:36:02+02:00</time>
      </trkpt>
      <trkpt lat="49.12223" lon="1.42974">
        <ele>49</ele>
        <time>2022-08-15T09:36:08+02:00</time>
      </trkpt>
      <trkpt lat="49.12214" lon="1.42968">
        <ele>51</ele>
        <time>2022-08-15T09:36:24+02:00</time>
      </trkpt>
      <trkpt lat="49.12216" lon="1.42965">
        <ele>52</ele>
        <time>2022-08-15T09:36:28+02:00</time>
      </trkpt>
      <trkpt lat="49.12224" lon="1.42954">
        <ele>53</ele>
        <time>2022-08-15T09:36:40+02:00</time>
      </trkpt>
      <trkpt lat="49.1222" lon="1.4295">
        <ele>54</ele>
        <time>2022-08-15T09:36:52+02:00</time>
      </trkpt>
      <trkpt lat="49.1221" lon="1.4296">
        <ele>53</ele>
        <time>2022-08-15T09:37:08+02:00</time>
      </trkpt>
      <trkpt lat="49.12204" lon="1.4296">
        <ele>54</ele>
        <time>2022-08-15T09:37:23+02:00</time>
      </trkpt>
      <trkpt lat="49.122" lon="1.4296">
        <ele>54</ele>
        <time>2022-08-15T09:37:36+02:00</time>
      </trkpt>
      <trkpt lat="49.12191" lon="1.42959">
        <ele>55</ele>
        <time>2022-08-15T09:37:50+02:00</time>
      </trkpt>
      <trkpt lat="49.1219" lon="1.42959">
        <ele>55</ele>
        <time>2022-08-15T09:37:53+02:00</time>
      </trkpt>
      <trkpt lat="49.12172" lon="1.42957">
        <ele>57</ele>
        <time>2022-08-15T09:38:12+02:00</time>
      </trkpt>
      <trkpt lat="49.12161" lon="1.42958">
        <ele>58</ele>
        <time>2022-08-15T09:38:26+02:00</time>
      </trkpt>
      <trkpt lat="49.12156" lon="1.4296">
        <ele>58</ele>
        <time>2022-08-15T09:38:40+02:00</time>
      </trkpt>
      <trkpt lat="49.12154" lon="1.4296">
        <ele>58</ele>
        <time>2022-08-15T09:38:45+02:00</time>
      </trkpt>
      <trkpt lat="49.12145" lon="1.42965">
        <ele>59</ele>
        <time>2022-08-15T09:38:56+02:00</time>
      </trkpt>
      <trkpt lat="49.12126" lon="1.42977">
        <ele>58</ele>
        <time>2022-08-15T09:39:12+02:00</time>
      </trkpt>
      <trkpt lat="49.12111" lon="1.42984">
        <ele>59</ele>
        <time>2022-08-15T09:39:27+02:00</time>
      </trkpt>
      <trkpt lat="49.12112" lon="1.42986">
        <ele>58</ele>
        <time>2022-08-15T09:39:38+02:00</time>
      </trkpt>
      <trkpt lat="49.12106" lon="1.42987">
        <ele>59</ele>
        <time>2022-08-15T09:39:58+02:00</time>
      </trkpt>
      <trkpt lat="49.12091" lon="1.42993">
        <ele>60</ele>
        <time>2022-08-15T09:40:13+02:00</time>
      </trkpt>
      <trkpt lat="49.12079" lon="1.42996">
        <ele>60</ele>
        <time>2022-08-15T09:40:27+02:00</time>
      </trkpt>
      <trkpt lat="49.12064" lon="1.42996">
        <ele>62</ele>
        <time>2022-08-15T09:40:41+02:00</time>
      </trkpt>
      <trkpt lat="49.12046" lon="1.43">
        <ele>63</ele>
        <time>2022-08-15T09:41:00+02:00</time>
      </trkpt>
      <trkpt lat="49.12035" lon="1.43003">
        <ele>63</ele>
        <time>2022-08-15T09:41:13+02:00</time>
      </trkpt>
      <trkpt lat="49.12032" lon="1.43004">
        <ele>63</ele>
        <time>2022-08-15T09:41:15+02:00</time>
      </trkpt>
      <trkpt lat="49.12016" lon="1.43007">
        <ele>64</ele>
        <time>2022-08-15T09:41:30+02:00</time>
      </trkpt>
      <trkpt lat="49.12014" lon="1.43008">
        <ele>64</ele>
        <time>2022-08-15T09:41:51+02:00</time>
      </trkpt>
      <trkpt lat="49.12005" lon="1.43011">
        <ele>64</ele>
        <time>2022-08-15T09:42:09+02:00</time>
      </trkpt>
      <trkpt lat="49.11989" lon="1.43017">
        <ele>63</ele>
        <time>2022-08-15T09:42:28+02:00</time>
      </trkpt>
      <trkpt lat="49.11977" lon="1.4302">
        <ele>63</ele>
        <time>2022-08-15T09:42:42+02:00</time>
      </trkpt>
      <trkpt lat="49.11968" lon="1.4302">
        <ele>64</ele>
        <time>2022-08-15T09:42:55+02:00</time>
      </trkpt>
      <trkpt lat="49.11954" lon="1.43021">
        <ele>64</ele>
        <time>2022-08-15T09:43:11+02:00</time>
      </trkpt>
      <trkpt lat="49.11951" lon="1.43021">
        <ele>64</ele>
        <time>2022-08-15T09:43:14+02:00</time>
      </trkpt>
      <trkpt lat="49.11935" lon="1.43021">
        <ele>65</ele>
        <time>2022-08-15T09:43:30+02:00</time>
      </trkpt>
      <trkpt lat="49.11922" lon="1.43024">
        <ele>65</ele>
        <time>2022-08-15T09:43:45+02:00</time>
      </trkpt>
      <trkpt lat="49.11918" lon="1.43023">
        <ele>65</ele>
        <time>2022-08-15T09:43:50+02:00</time>
      </trkpt>
      <trkpt lat="49.11902" lon="1.43022">
        <ele>66</ele>
        <time>2022-08-15T09:44:06+02:00</time>
      </trkpt>
      <trkpt lat="49.11887" lon="1.43023">
        <ele>66</ele>
        <time>2022-08-15T09:44:23+02:00</time>
      </trkpt>
      <trkpt lat="49.1188" lon="1.43022">
        <ele>66</ele>
        <time>2022-08-15T09:44:36+02:00</time>
      </trkpt>
      <trkpt lat="49.1188" lon="1.43021">
        <ele>66</ele>
        <time>2022-08-15T09:44:52+02:00</time>
      </trkpt>
      <trkpt lat="49.11874" lon="1.43019">
        <ele>67</ele>
        <time>2022-08-15T09:45:12+02:00</time>
      </trkpt>
      <trkpt lat="49.11871" lon="1.43018">
        <ele>67</ele>
        <time>2022-08-15T09:45:15+02:00</time>
      </trkpt>
      <trkpt lat="49.11859" lon="1.43016">
        <ele>68</ele>
        <time>2022-08-15T09:45:29+02:00</time>
      </trkpt>
      <trkpt lat="49.11847" lon="1.43014">
        <ele>68</ele>
        <time>2022-08-15T09:45:44+02:00</time>
      </trkpt>
      <trkpt lat="49.11834" lon="1.43013">
        <ele>69</ele>
        <time>2022-08-15T09:45:57+02:00</time>
      </trkpt>
      <trkpt lat="49.11824" lon="1.43012">
        <ele>68</ele>
        <time>2022-08-15T09:46:08+02:00</time>
      </trkpt>
      <trkpt lat="49.11817" lon="1.43012">
        <ele>68</ele>
        <time>2022-08-15T09:46:23+02:00</time>
      </trkpt>
      <trkpt lat="49.11814" lon="1.43012">
        <ele>67</ele>
        <time>2022-08-15T09:46:29+02:00</time>
      </trkpt>
      <trkpt lat="49.11808" lon="1.43011">
        <ele>67</ele>
        <time>2022-08-15T09:46:45+02:00</time>
      </trkpt>
      <trkpt lat="49.11803" lon="1.43008">
        <ele>67</ele>
        <time>2022-08-15T09:47:01+02:00</time>
      </trkpt>
      <trkpt lat="49.11791" lon="1.43001">
        <ele>67</ele>
        <time>2022-08-15T09:47:17+02:00</time>
      </trkpt>
      <trkpt lat="49.11781" lon="1.42991">
        <ele>68</ele>
        <time>2022-08-15T09:47:33+02:00</time>
      </trkpt>
      <trkpt lat="49.11771" lon="1.42986">
        <ele>68</ele>
        <time>2022-08-15T09:47:53+02:00</time>
      </trkpt>
      <trkpt lat="49.11768" lon="1.42982">
        <ele>68</ele>
        <time>2022-08-15T09:48:10+02:00</time>
      </trkpt>
      <trkpt lat="49.11769" lon="1.42972">
        <ele>69</ele>
        <time>2022-08-15T09:48:25+02:00</time>
      </trkpt>
      <trkpt lat="49.11774" lon="1.42958">
        <ele>71</ele>
        <time>2022-08-15T09:48:41+02:00</time>
      </trkpt>
      <trkpt lat="49.11776" lon="1.42951">
        <ele>72</ele>
        <time>2022-08-15T09:48:57+02:00</time>
      </trkpt>
      <trkpt lat="49.11781" lon="1.42941">
        <ele>74</ele>
        <time>2022-08-15T09:49:12+02:00</time>
      </trkpt>
      <trkpt lat="49.11781" lon="1.42939">
        <ele>74</ele>
        <time>2022-08-15T09:49:25+02:00</time>
      </trkpt>
      <trkpt lat="49.11781" lon="1.42935">
        <ele>75</ele>
        <time>2022-08-15T09:49:37+02:00</time>
      </trkpt>
      <trkpt lat="49.11784" lon="1.42928">
        <ele>76</ele>
        <time>2022-08-15T09:49:52+02:00</time>
      </trkpt>
      <trkpt lat="49.11787" lon="1.42915">
        <ele>78</ele>
        <time>2022-08-15T09:50:07+02:00</time>
      </trkpt>
      <trkpt lat="49.11791" lon="1.42912">
        <ele>79</ele>
        <time>2022-08-15T09:50:23+02:00</time>
      </trkpt>
      <trkpt lat="49.11796" lon="1.42902">
        <ele>80</ele>
        <time>2022-08-15T09:50:39+02:00</time>
      </trkpt>
      <trkpt lat="49.118" lon="1.42894">
        <ele>82</ele>
        <time>2022-08-15T09:50:52+02:00</time>
      </trkpt>
      <trkpt lat="49.11806" lon="1.42884">
        <ele>83</ele>
        <time>2022-08-15T09:51:07+02:00</time>
      </trkpt>
      <trkpt lat="49.11807" lon="1.42883">
        <ele>84</ele>
        <time>2022-08-15T09:51:27+02:00</time>
      </trkpt>
      <trkpt lat="49.1181" lon="1.42871">
        <ele>85</ele>
        <time>2022-08-15T09:51:41+02:00</time>
      </trkpt>
      <trkpt lat="49.11814" lon="1.4286">
        <ele>86</ele>
        <time>2022-08-15T09:51:57+02:00</time>
      </trkpt>
      <trkpt lat="49.1182" lon="1.42844">
        <ele>89</ele>
        <time>2022-08-15T09:52:12+02:00</time>
      </trkpt>
      <trkpt lat="49.11824" lon="1.42827">
        <ele>91</ele>
        <time>2022-08-15T09:52:28+02:00</time>
      </trkpt>
      <trkpt lat="49.11828" lon="1.42811">
        <ele>92</ele>
        <time>2022-08-15T09:52:43+02:00</time>
      </trkpt>
      <trkpt lat="49.11826" lon="1.42809">
        <ele>92</ele>
        <time>2022-08-15T09:53:04+02:00</time>
      </trkpt>
      <trkpt lat="49.11829" lon="1.42799">
        <ele>93</ele>
        <time>2022-08-15T09:53:14+02:00</time>
      </trkpt>
      <trkpt lat="49.11833" lon="1.42788">
        <ele>95</ele>
        <time>2022-08-15T09:53:28+02:00</time>
      </trkpt>
      <trkpt lat="49.11836" lon="1.42778">
        <ele>96</ele>
        <time>2022-08-15T09:53:41+02:00</time>
      </trkpt>
      <trkpt lat="49.11845" lon="1.42759">
        <ele>99</ele>
        <time>2022-08-15T09:53:58+02:00</time>
      </trkpt>
      <trkpt lat="49.11843" lon="1.42749">
        <ele>100</ele>
        <time>2022-08-15T09:54:11+02:00</time>
      </trkpt>
      <trkpt lat="49.11831" lon="1.42741">
        <ele>99</ele>
        <time>2022-08-15T09:54:24+02:00</time>
      </trkpt>
      <trkpt lat="49.11816" lon="1.42725">
        <ele>101</ele>
        <time>2022-08-15T09:54:42+02:00</time>
      </trkpt>
      <trkpt lat="49.11809" lon="1.42714">
        <ele>101</ele>
        <time>2022-08-15T09:54:56+02:00</time>
      </trkpt>
      <trkpt lat="49.11798" lon="1.42712">
        <ele>100</ele>
        <time>2022-08-15T09:55:11+02:00</time>
      </trkpt>
      <trkpt lat="49.11796" lon="1.4271">
        <ele>100</ele>
        <time>2022-08-15T09:55:13+02:00</time>
      </trkpt>
      <trkpt lat="49.11793" lon="1.4271">
        <ele>100</ele>
        <time>2022-08-15T09:55:16+02:00</time>
      </trkpt>
      <trkpt lat="49.11772" lon="1.42704">
        <ele>98</ele>
        <time>2022-08-15T09:55:36+02:00</time>
      </trkpt>
      <trkpt lat="49.11769" lon="1.42704">
        <ele>98</ele>
        <time>2022-08-15T09:55:52+02:00</time>
      </trkpt>
      <trkpt lat="49.11761" lon="1.42699">
        <ele>98</ele>
        <time>2022-08-15T09:56:07+02:00</time>
      </trkpt>
      <trkpt lat="49.11751" lon="1.42697">
        <ele>97</ele>
        <time>2022-08-15T09:56:16+02:00</time>
      </trkpt>
      <trkpt lat="49.11736" lon="1.42693">
        <ele>98</ele>
        <time>2022-08-15T09:56:31+02:00</time>
      </trkpt>
      <trkpt lat="49.11718" lon="1.42688">
        <ele>99</ele>
        <time>2022-08-15T09:56:47+02:00</time>
      </trkpt>
      <trkpt lat="49.11698" lon="1.42687">
        <ele>100</ele>
        <time>2022-08-15T09:57:03+02:00</time>
      </trkpt>
      <trkpt lat="49.11696" lon="1.42687">
        <ele>100</ele>
        <time>2022-08-15T09:57:05+02:00</time>
      </trkpt>
      <trkpt lat="49.11684" lon="1.42691">
        <ele>100</ele>
        <time>2022-08-15T09:57:17+02:00</time>
      </trkpt>
      <trkpt lat="49.11681" lon="1.42697">
        <ele>98</ele>
        <time>2022-08-15T09:57:32+02:00</time>
      </trkpt>
      <trkpt lat="49.11682" lon="1.42699">
        <ele>98</ele>
        <time>2022-08-15T09:57:50+02:00</time>
      </trkpt>
      <trkpt lat="49.11683" lon="1.427">
        <ele>98</ele>
        <time>2022-08-15T09:58:16+02:00</time>
      </trkpt>
      <trkpt lat="49.1168" lon="1.427">
        <ele>98</ele>
        <time>2022-08-15T09:58:31+02:00</time>
      </trkpt>
      <trkpt lat="49.11678" lon="1.427">
        <ele>98</ele>
        <time>2022-08-15T09:58:34+02:00</time>
      </trkpt>
      <trkpt lat="49.11669" lon="1.42706">
        <ele>97</ele>
        <time>2022-08-15T09:58:45+02:00</time>
      </trkpt>
      <trkpt lat="49.11657" lon="1.42722">
        <ele>94</ele>
        <time>2022-08-15T09:59:01+02:00</time>
      </trkpt>
      <trkpt lat="49.11647" lon="1.42733">
        <ele>93</ele>
        <time>2022-08-15T09:59:13+02:00</time>
      </trkpt>
      <trkpt lat="49.11634" lon="1.4276">
        <ele>90</ele>
        <time>2022-08-15T09:59:33+02:00</time>
      </trkpt>
      <trkpt lat="49.11623" lon="1.42784">
        <ele>88</ele>
        <time>2022-08-15T09:59:50+02:00</time>
      </trkpt>
      <trkpt lat="49.11614" lon="1.42808">
        <ele>87</ele>
        <time>2022-08-15T10:00:07+02:00</time>
      </trkpt>
      <trkpt lat="49.11606" lon="1.42833">
        <ele>85</ele>
        <time>2022-08-15T10:00:23+02:00</time>
      </trkpt>
      <trkpt lat="49.11606" lon="1.42839">
        <ele>85</ele>
        <time>2022-08-15T10:00:34+02:00</time>
      </trkpt>
      <trkpt lat="49.11602" lon="1.42862">
        <ele>84</ele>
        <time>2022-08-15T10:00:49+02:00</time>
      </trkpt>
      <trkpt lat="49.116" lon="1.42885">
        <ele>82</ele>
        <time>2022-08-15T10:01:03+02:00</time>
      </trkpt>
      <trkpt lat="49.11599" lon="1.42893">
        <ele>82</ele>
        <time>2022-08-15T10:01:08+02:00</time>
      </trkpt>
      <trkpt lat="49.11596" lon="1.42904">
        <ele>82</ele>
        <time>2022-08-15T10:01:15+02:00</time>
      </trkpt>
      <trkpt lat="49.11595" lon="1.42906">
        <ele>82</ele>
        <time>2022-08-15T10:01:17+02:00</time>
      </trkpt>
      <trkpt lat="49.11589" lon="1.42904">
        <ele>82</ele>
        <time>2022-08-15T10:01:28+02:00</time>
      </trkpt>
      <trkpt lat="49.11581" lon="1.42886">
        <ele>84</ele>
        <time>2022-08-15T10:01:43+02:00</time>
      </trkpt>
      <trkpt lat="49.11574" lon="1.42873">
        <ele>85</ele>
        <time>2022-08-15T10:01:55+02:00</time>
      </trkpt>
      <trkpt lat="49.11568" lon="1.42873">
        <ele>85</ele>
        <time>2022-08-15T10:02:01+02:00</time>
      </trkpt>
      <trkpt lat="49.11556" lon="1.42883">
        <ele>85</ele>
        <time>2022-08-15T10:02:16+02:00</time>
      </trkpt>
      <trkpt lat="49.1155" lon="1.42886">
        <ele>85</ele>
        <time>2022-08-15T10:02:26+02:00</time>
      </trkpt>
      <trkpt lat="49.11546" lon="1.42889">
        <ele>85</ele>
        <time>2022-08-15T10:02:37+02:00</time>
      </trkpt>
      <trkpt lat="49.11547" lon="1.42889">
        <ele>85</ele>
        <time>2022-08-15T10:02:39+02:00</time>
      </trkpt>
      <trkpt lat="49.11538" lon="1.42894">
        <ele>85</ele>
        <time>2022-08-15T10:02:56+02:00</time>
      </trkpt>
      <trkpt lat="49.11524" lon="1.42905">
        <ele>85</ele>
        <time>2022-08-15T10:03:12+02:00</time>
      </trkpt>
      <trkpt lat="49.11507" lon="1.42916">
        <ele>85</ele>
        <time>2022-08-15T10:03:28+02:00</time>
      </trkpt>
      <trkpt lat="49.11487" lon="1.42928">
        <ele>84</ele>
        <time>2022-08-15T10:03:46+02:00</time>
      </trkpt>
      <trkpt lat="49.11475" lon="1.42936">
        <ele>84</ele>
        <time>2022-08-15T10:03:57+02:00</time>
      </trkpt>
      <trkpt lat="49.11457" lon="1.42947">
        <ele>83</ele>
        <time>2022-08-15T10:04:15+02:00</time>
      </trkpt>
      <trkpt lat="49.11442" lon="1.42958">
        <ele>83</ele>
        <time>2022-08-15T10:04:31+02:00</time>
      </trkpt>
      <trkpt lat="49.11427" lon="1.42969">
        <ele>82</ele>
        <time>2022-08-15T10:04:46+02:00</time>
      </trkpt>
      <trkpt lat="49.11413" lon="1.42977">
        <ele>82</ele>
        <time>2022-08-15T10:05:01+02:00</time>
      </trkpt>
      <trkpt lat="49.11398" lon="1.42982">
        <ele>82</ele>
        <time>2022-08-15T10:05:17+02:00</time>
      </trkpt>
      <trkpt lat="49.11392" lon="1.42984">
        <ele>82</ele>
        <time>2022-08-15T10:05:32+02:00</time>
      </trkpt>
      <trkpt lat="49.1138" lon="1.42989">
        <ele>82</ele>
        <time>2022-08-15T10:05:48+02:00</time>
      </trkpt>
      <trkpt lat="49.11378" lon="1.42991">
        <ele>81</ele>
        <time>2022-08-15T10:06:03+02:00</time>
      </trkpt>
      <trkpt lat="49.11359" lon="1.43002">
        <ele>81</ele>
        <time>2022-08-15T10:06:22+02:00</time>
      </trkpt>
      <trkpt lat="49.11343" lon="1.43014">
        <ele>80</ele>
        <time>2022-08-15T10:06:39+02:00</time>
      </trkpt>
      <trkpt lat="49.11328" lon="1.43023">
        <ele>79</ele>
        <time>2022-08-15T10:06:54+02:00</time>
      </trkpt>
      <trkpt lat="49.11312" lon="1.43036">
        <ele>80</ele>
        <time>2022-08-15T10:07:10+02:00</time>
      </trkpt>
      <trkpt lat="49.11311" lon="1.43036">
        <ele>80</ele>
        <time>2022-08-15T10:07:11+02:00</time>
      </trkpt>
      <trkpt lat="49.11293" lon="1.43045">
        <ele>81</ele>
        <time>2022-08-15T10:07:27+02:00</time>
      </trkpt>
      <trkpt lat="49.1128" lon="1.43054">
        <ele>82</ele>
        <time>2022-08-15T10:07:43+02:00</time>
      </trkpt>
      <trkpt lat="49.1128" lon="1.43062">
        <ele>81</ele>
        <time>2022-08-15T10:07:51+02:00</time>
      </trkpt>
      <trkpt lat="49.11279" lon="1.43078">
        <ele>81</ele>
        <time>2022-08-15T10:08:03+02:00</time>
      </trkpt>
      <trkpt lat="49.11275" lon="1.43107">
        <ele>80</ele>
        <time>2022-08-15T10:08:18+02:00</time>
      </trkpt>
      <trkpt lat="49.11275" lon="1.43129">
        <ele>79</ele>
        <time>2022-08-15T10:08:33+02:00</time>
      </trkpt>
      <trkpt lat="49.11278" lon="1.43138">
        <ele>78</ele>
        <time>2022-08-15T10:08:41+02:00</time>
      </trkpt>
      <trkpt lat="49.11283" lon="1.43156">
        <ele>76</ele>
        <time>2022-08-15T10:08:55+02:00</time>
      </trkpt>
      <trkpt lat="49.11284" lon="1.43161">
        <ele>75</ele>
        <time>2022-08-15T10:08:58+02:00</time>
      </trkpt>
      <trkpt lat="49.1129" lon="1.4317">
        <ele>73</ele>
        <time>2022-08-15T10:09:08+02:00</time>
      </trkpt>
      <trkpt lat="49.11297" lon="1.43182">
        <ele>70</ele>
        <time>2022-08-15T10:09:24+02:00</time>
      </trkpt>
      <trkpt lat="49.11301" lon="1.4319">
        <ele>69</ele>
        <time>2022-08-15T10:09:36+02:00</time>
      </trkpt>
      <trkpt lat="49.11303" lon="1.43195">
        <ele>67</ele>
        <time>2022-08-15T10:09:40+02:00</time>
      </trkpt>
      <trkpt lat="49.11311" lon="1.43202">
        <ele>65</ele>
        <time>2022-08-15T10:09:50+02:00</time>
      </trkpt>
      <trkpt lat="49.11319" lon="1.43203">
        <ele>63</ele>
        <time>2022-08-15T10:09:58+02:00</time>
      </trkpt>
      <trkpt lat="49.11309" lon="1.43213">
        <ele>64</ele>
        <time>2022-08-15T10:10:15+02:00</time>
      </trkpt>
      <trkpt lat="49.11323" lon="1.43201">
        <ele>63</ele>
        <time>2022-08-15T10:10:30+02:00</time>
      </trkpt>
      <trkpt lat="49.11334" lon="1.43191">
        <ele>62</ele>
        <time>2022-08-15T10:10:44+02:00</time>
      </trkpt>
      <trkpt lat="49.11347" lon="1.43184">
        <ele>63</ele>
        <time>2022-08-15T10:10:58+02:00</time>
      </trkpt>
      <trkpt lat="49.11366" lon="1.43195">
        <ele>61</ele>
        <time>2022-08-15T10:11:14+02:00</time>
      </trkpt>
      <trkpt lat="49.11369" lon="1.43203">
        <ele>60</ele>
        <time>2022-08-15T10:11:30+02:00</time>
      </trkpt>
      <trkpt lat="49.11371" lon="1.43203">
        <ele>60</ele>
        <time>2022-08-15T10:11:50+02:00</time>
      </trkpt>
      <trkpt lat="49.1137" lon="1.43202">
        <ele>60</ele>
        <time>2022-08-15T10:12:09+02:00</time>
      </trkpt>
      <trkpt lat="49.11366" lon="1.43206">
        <ele>60</ele>
        <time>2022-08-15T10:12:13+02:00</time>
      </trkpt>
      <trkpt lat="49.11348" lon="1.43225">
        <ele>58</ele>
        <time>2022-08-15T10:12:32+02:00</time>
      </trkpt>
      <trkpt lat="49.11331" lon="1.43239">
        <ele>57</ele>
        <time>2022-08-15T10:12:48+02:00</time>
      </trkpt>
      <trkpt lat="49.1132" lon="1.4325">
        <ele>57</ele>
        <time>2022-08-15T10:13:03+02:00</time>
      </trkpt>
      <trkpt lat="49.11314" lon="1.43257">
        <ele>58</ele>
        <time>2022-08-15T10:13:13+02:00</time>
      </trkpt>
      <trkpt lat="49.11308" lon="1.43271">
        <ele>57</ele>
        <time>2022-08-15T10:13:28+02:00</time>
      </trkpt>
      <trkpt lat="49.11302" lon="1.43274">
        <ele>58</ele>
        <time>2022-08-15T10:13:37+02:00</time>
      </trkpt>
      <trkpt lat="49.11289" lon="1.43282">
        <ele>59</ele>
        <time>2022-08-15T10:13:53+02:00</time>
      </trkpt>
      <trkpt lat="49.11277" lon="1.43287">
        <ele>59</ele>
        <time>2022-08-15T10:14:08+02:00</time>
      </trkpt>
      <trkpt lat="49.11264" lon="1.43294">
        <ele>60</ele>
        <time>2022-08-15T10:14:23+02:00</time>
      </trkpt>
      <trkpt lat="49.11263" lon="1.43292">
        <ele>60</ele>
        <time>2022-08-15T10:14:36+02:00</time>
      </trkpt>
      <trkpt lat="49.11261" lon="1.43292">
        <ele>61</ele>
        <time>2022-08-15T10:14:52+02:00</time>
      </trkpt>
      <trkpt lat="49.11257" lon="1.43295">
        <ele>61</ele>
        <time>2022-08-15T10:15:07+02:00</time>
      </trkpt>
      <trkpt lat="49.11257" lon="1.43298">
        <ele>60</ele>
        <time>2022-08-15T10:15:21+02:00</time>
      </trkpt>
      <trkpt lat="49.11246" lon="1.43302">
        <ele>60</ele>
        <time>2022-08-15T10:15:34+02:00</time>
      </trkpt>
      <trkpt lat="49.11244" lon="1.43303">
        <ele>60</ele>
        <time>2022-08-15T10:15:37+02:00</time>
      </trkpt>
      <trkpt lat="49.11233" lon="1.43308">
        <ele>60</ele>
        <time>2022-08-15T10:15:50+02:00</time>
      </trkpt>
      <trkpt lat="49.11223" lon="1.43313">
        <ele>59</ele>
        <time>2022-08-15T10:16:04+02:00</time>
      </trkpt>
      <trkpt lat="49.11219" lon="1.43313">
        <ele>59</ele>
        <time>2022-08-15T10:16:08+02:00</time>
      </trkpt>
      <trkpt lat="49.11188" lon="1.43317">
        <ele>59</ele>
        <time>2022-08-15T10:16:24+02:00</time>
      </trkpt>
      <trkpt lat="49.11167" lon="1.43319">
        <ele>59</ele>
        <time>2022-08-15T10:16:40+02:00</time>
      </trkpt>
      <trkpt lat="49.11149" lon="1.43318">
        <ele>59</ele>
        <time>2022-08-15T10:16:55+02:00</time>
      </trkpt>
      <trkpt lat="49.11137" lon="1.43314">
        <ele>59</ele>
        <time>2022-08-15T10:17:10+02:00</time>
      </trkpt>
      <trkpt lat="49.11128" lon="1.43314">
        <ele>59</ele>
        <time>2022-08-15T10:17:27+02:00</time>
      </trkpt>
      <trkpt lat="49.11117" lon="1.43316">
        <ele>59</ele>
        <time>2022-08-15T10:17:42+02:00</time>
      </trkpt>
      <trkpt lat="49.1111" lon="1.43314">
        <ele>59</ele>
        <time>2022-08-15T10:18:03+02:00</time>
      </trkpt>
      <trkpt lat="49.11104" lon="1.43322">
        <ele>58</ele>
        <time>2022-08-15T10:18:22+02:00</time>
      </trkpt>
      <trkpt lat="49.11097" lon="1.43331">
        <ele>57</ele>
        <time>2022-08-15T10:18:35+02:00</time>
      </trkpt>
      <trkpt lat="49.1109" lon="1.43333">
        <ele>57</ele>
        <time>2022-08-15T10:18:41+02:00</time>
      </trkpt>
      <trkpt lat="49.11088" lon="1.43333">
        <ele>57</ele>
        <time>2022-08-15T10:18:43+02:00</time>
      </trkpt>
      <trkpt lat="49.1108" lon="1.43336">
        <ele>57</ele>
        <time>2022-08-15T10:18:51+02:00</time>
      </trkpt>
      <trkpt lat="49.11065" lon="1.43343">
        <ele>58</ele>
        <time>2022-08-15T10:19:07+02:00</time>
      </trkpt>
      <trkpt lat="49.1105" lon="1.43346">
        <ele>59</ele>
        <time>2022-08-15T10:19:22+02:00</time>
      </trkpt>
      <trkpt lat="49.11039" lon="1.43348">
        <ele>60</ele>
        <time>2022-08-15T10:19:35+02:00</time>
      </trkpt>
      <trkpt lat="49.1103" lon="1.43346">
        <ele>61</ele>
        <time>2022-08-15T10:19:50+02:00</time>
      </trkpt>
      <trkpt lat="49.11023" lon="1.43342">
        <ele>61</ele>
        <time>2022-08-15T10:20:04+02:00</time>
      </trkpt>
      <trkpt lat="49.11017" lon="1.4334">
        <ele>62</ele>
        <time>2022-08-15T10:20:11+02:00</time>
      </trkpt>
      <trkpt lat="49.11008" lon="1.43337">
        <ele>63</ele>
        <time>2022-08-15T10:20:25+02:00</time>
      </trkpt>
      <trkpt lat="49.11" lon="1.4333">
        <ele>64</ele>
        <time>2022-08-15T10:20:38+02:00</time>
      </trkpt>
      <trkpt lat="49.10993" lon="1.43318">
        <ele>67</ele>
        <time>2022-08-15T10:20:53+02:00</time>
      </trkpt>
      <trkpt lat="49.10987" lon="1.43317">
        <ele>68</ele>
        <time>2022-08-15T10:21:08+02:00</time>
      </trkpt>
      <trkpt lat="49.10982" lon="1.4332">
        <ele>68</ele>
        <time>2022-08-15T10:21:19+02:00</time>
      </trkpt>
      <trkpt lat="49.10966" lon="1.43333">
        <ele>70</ele>
        <time>2022-08-15T10:21:35+02:00</time>
      </trkpt>
      <trkpt lat="49.10956" lon="1.43343">
        <ele>70</ele>
        <time>2022-08-15T10:21:48+02:00</time>
      </trkpt>
      <trkpt lat="49.10949" lon="1.4335">
        <ele>71</ele>
        <time>2022-08-15T10:22:04+02:00</time>
      </trkpt>
      <trkpt lat="49.10947" lon="1.43352">
        <ele>71</ele>
        <time>2022-08-15T10:22:28+02:00</time>
      </trkpt>
      <trkpt lat="49.10944" lon="1.43355">
        <ele>71</ele>
        <time>2022-08-15T10:22:31+02:00</time>
      </trkpt>
      <trkpt lat="49.10928" lon="1.43367">
        <ele>72</ele>
        <time>2022-08-15T10:22:47+02:00</time>
      </trkpt>
      <trkpt lat="49.10923" lon="1.43369">
        <ele>72</ele>
        <time>2022-08-15T10:22:51+02:00</time>
      </trkpt>
      <trkpt lat="49.10907" lon="1.43375">
        <ele>72</ele>
        <time>2022-08-15T10:23:06+02:00</time>
      </trkpt>
      <trkpt lat="49.10895" lon="1.43382">
        <ele>72</ele>
        <time>2022-08-15T10:23:18+02:00</time>
      </trkpt>
      <trkpt lat="49.1088" lon="1.43391">
        <ele>71</ele>
        <time>2022-08-15T10:23:32+02:00</time>
      </trkpt>
      <trkpt lat="49.10871" lon="1.43397">
        <ele>70</ele>
        <time>2022-08-15T10:23:41+02:00</time>
      </trkpt>
      <trkpt lat="49.10852" lon="1.43408">
        <ele>69</ele>
        <time>2022-08-15T10:23:58+02:00</time>
      </trkpt>
      <trkpt lat="49.1084" lon="1.43401">
        <ele>70</ele>
        <time>2022-08-15T10:24:15+02:00</time>
      </trkpt>
      <trkpt lat="49.10833" lon="1.43389">
        <ele>71</ele>
        <time>2022-08-15T10:24:27+02:00</time>
      </trkpt>
      <trkpt lat="49.10833" lon="1.43384">
        <ele>72</ele>
        <time>2022-08-15T10:24:29+02:00</time>
      </trkpt>
      <trkpt lat="49.10822" lon="1.43363">
        <ele>74</ele>
        <time>2022-08-15T10:24:44+02:00</time>
      </trkpt>
      <trkpt lat="49.10813" lon="1.43352">
        <ele>75</ele>
        <time>2022-08-15T10:24:59+02:00</time>
      </trkpt>
      <trkpt lat="49.10809" lon="1.43352">
        <ele>75</ele>
        <time>2022-08-15T10:25:02+02:00</time>
      </trkpt>
      <trkpt lat="49.10797" lon="1.43365">
        <ele>74</ele>
        <time>2022-08-15T10:25:18+02:00</time>
      </trkpt>
      <trkpt lat="49.10795" lon="1.43368">
        <ele>74</ele>
        <time>2022-08-15T10:25:22+02:00</time>
      </trkpt>
      <trkpt lat="49.10793" lon="1.4337">
        <ele>74</ele>
        <time>2022-08-15T10:25:24+02:00</time>
      </trkpt>
      <trkpt lat="49.10781" lon="1.43386">
        <ele>73</ele>
        <time>2022-08-15T10:27:01+02:00</time>
      </trkpt>
      <trkpt lat="49.10779" lon="1.43391">
        <ele>72</ele>
        <time>2022-08-15T10:27:15+02:00</time>
      </trkpt>
      <trkpt lat="49.1078" lon="1.43391">
        <ele>72</ele>
        <time>2022-08-15T10:27:16+02:00</time>
      </trkpt>
      <trkpt lat="49.1078" lon="1.4339">
        <ele>72</ele>
        <time>2022-08-15T10:27:17+02:00</time>
      </trkpt>
      <trkpt lat="49.1078" lon="1.4339">
        <ele>72</ele>
        <time>2022-08-15T10:27:20+02:00</time>
      </trkpt>
      <trkpt lat="49.10775" lon="1.43385">
        <ele>73</ele>
        <time>2022-08-15T10:30:07+02:00</time>
      </trkpt>
      <trkpt lat="49.10769" lon="1.43375">
        <ele>74</ele>
        <time>2022-08-15T10:30:42+02:00</time>
      </trkpt>
      <trkpt lat="49.10764" lon="1.43372">
        <ele>74</ele>
        <time>2022-08-15T10:33:10+02:00</time>
      </trkpt>
      <trkpt lat="49.10761" lon="1.43362">
        <ele>75</ele>
        <time>2022-08-15T10:33:26+02:00</time>
      </trkpt>
      <trkpt lat="49.10759" lon="1.43349">
        <ele>76</ele>
        <time>2022-08-15T10:33:45+02:00</time>
      </trkpt>
      <trkpt lat="49.10754" lon="1.43342">
        <ele>76</ele>
        <time>2022-08-15T10:34:03+02:00</time>
      </trkpt>
      <trkpt lat="49.10752" lon="1.43345">
        <ele>76</ele>
        <time>2022-08-15T10:34:09+02:00</time>
      </trkpt>
      <trkpt lat="49.10738" lon="1.43351">
        <ele>76</ele>
        <time>2022-08-15T10:34:24+02:00</time>
      </trkpt>
      <trkpt lat="49.10724" lon="1.43358">
        <ele>76</ele>
        <time>2022-08-15T10:34:41+02:00</time>
      </trkpt>
      <trkpt lat="49.1071" lon="1.43363">
        <ele>77</ele>
        <time>2022-08-15T10:34:58+02:00</time>
      </trkpt>
      <trkpt lat="49.10698" lon="1.43367">
        <ele>77</ele>
        <time>2022-08-15T10:35:12+02:00</time>
      </trkpt>
      <trkpt lat="49.10688" lon="1.43367">
        <ele>77</ele>
        <time>2022-08-15T10:35:25+02:00</time>
      </trkpt>
      <trkpt lat="49.10679" lon="1.43355">
        <ele>79</ele>
        <time>2022-08-15T10:35:39+02:00</time>
      </trkpt>
      <trkpt lat="49.10678" lon="1.43348">
        <ele>79</ele>
        <time>2022-08-15T10:35:44+02:00</time>
      </trkpt>
      <trkpt lat="49.10677" lon="1.43341">
        <ele>80</ele>
        <time>2022-08-15T10:35:50+02:00</time>
      </trkpt>
      <trkpt lat="49.10676" lon="1.43322">
        <ele>82</ele>
        <time>2022-08-15T10:36:06+02:00</time>
      </trkpt>
      <trkpt lat="49.10676" lon="1.43305">
        <ele>83</ele>
        <time>2022-08-15T10:37:07+02:00</time>
      </trkpt>
      <trkpt lat="49.10677" lon="1.43289">
        <ele>84</ele>
        <time>2022-08-15T10:37:19+02:00</time>
      </trkpt>
      <trkpt lat="49.10674" lon="1.43279">
        <ele>85</ele>
        <time>2022-08-15T10:37:33+02:00</time>
      </trkpt>
      <trkpt lat="49.10675" lon="1.43263">
        <ele>86</ele>
        <time>2022-08-15T10:37:47+02:00</time>
      </trkpt>
      <trkpt lat="49.10677" lon="1.43243">
        <ele>88</ele>
        <time>2022-08-15T10:38:02+02:00</time>
      </trkpt>
      <trkpt lat="49.10665" lon="1.4321">
        <ele>92</ele>
        <time>2022-08-15T10:38:50+02:00</time>
      </trkpt>
      <trkpt lat="49.10661" lon="1.43203">
        <ele>93</ele>
        <time>2022-08-15T10:39:04+02:00</time>
      </trkpt>
      <trkpt lat="49.10656" lon="1.43193">
        <ele>95</ele>
        <time>2022-08-15T10:39:22+02:00</time>
      </trkpt>
      <trkpt lat="49.10652" lon="1.43188">
        <ele>96</ele>
        <time>2022-08-15T10:39:35+02:00</time>
      </trkpt>
      <trkpt lat="49.10643" lon="1.43184">
        <ele>98</ele>
        <time>2022-08-15T10:39:50+02:00</time>
      </trkpt>
      <trkpt lat="49.10635" lon="1.43183">
        <ele>99</ele>
        <time>2022-08-15T10:40:06+02:00</time>
      </trkpt>
      <trkpt lat="49.10632" lon="1.4318">
        <ele>100</ele>
        <time>2022-08-15T10:40:19+02:00</time>
      </trkpt>
      <trkpt lat="49.10622" lon="1.43174">
        <ele>102</ele>
        <time>2022-08-15T10:40:36+02:00</time>
      </trkpt>
      <trkpt lat="49.10613" lon="1.43166">
        <ele>104</ele>
        <time>2022-08-15T10:40:53+02:00</time>
      </trkpt>
      <trkpt lat="49.10605" lon="1.43156">
        <ele>108</ele>
        <time>2022-08-15T10:41:10+02:00</time>
      </trkpt>
      <trkpt lat="49.10599" lon="1.43147">
        <ele>110</ele>
        <time>2022-08-15T10:41:29+02:00</time>
      </trkpt>
      <trkpt lat="49.10597" lon="1.43143">
        <ele>111</ele>
        <time>2022-08-15T10:41:46+02:00</time>
      </trkpt>
      <trkpt lat="49.10583" lon="1.43128">
        <ele>117</ele>
        <time>2022-08-15T10:42:06+02:00</time>
      </trkpt>
      <trkpt lat="49.10578" lon="1.43124">
        <ele>118</ele>
        <time>2022-08-15T10:42:17+02:00</time>
      </trkpt>
      <trkpt lat="49.10571" lon="1.43119">
        <ele>119</ele>
        <time>2022-08-15T10:42:31+02:00</time>
      </trkpt>
      <trkpt lat="49.10563" lon="1.43117">
        <ele>120</ele>
        <time>2022-08-15T10:42:45+02:00</time>
      </trkpt>
      <trkpt lat="49.10555" lon="1.43115">
        <ele>121</ele>
        <time>2022-08-15T10:42:59+02:00</time>
      </trkpt>
      <trkpt lat="49.1054" lon="1.43108">
        <ele>124</ele>
        <time>2022-08-15T10:43:17+02:00</time>
      </trkpt>
      <trkpt lat="49.1053" lon="1.43101">
        <ele>126</ele>
        <time>2022-08-15T10:43:36+02:00</time>
      </trkpt>
      <trkpt lat="49.1052" lon="1.43094">
        <ele>128</ele>
        <time>2022-08-15T10:43:56+02:00</time>
      </trkpt>
      <trkpt lat="49.10509" lon="1.43085">
        <ele>130</ele>
        <time>2022-08-15T10:44:19+02:00</time>
      </trkpt>
      <trkpt lat="49.10499" lon="1.43073">
        <ele>132</ele>
        <time>2022-08-15T10:44:37+02:00</time>
      </trkpt>
      <trkpt lat="49.1049" lon="1.43058">
        <ele>133</ele>
        <time>2022-08-15T10:44:55+02:00</time>
      </trkpt>
      <trkpt lat="49.10482" lon="1.43048">
        <ele>134</ele>
        <time>2022-08-15T10:45:13+02:00</time>
      </trkpt>
      <trkpt lat="49.1047" lon="1.43033">
        <ele>135</ele>
        <time>2022-08-15T10:45:31+02:00</time>
      </trkpt>
      <trkpt lat="49.10464" lon="1.43028">
        <ele>136</ele>
        <time>2022-08-15T10:45:47+02:00</time>
      </trkpt>
      <trkpt lat="49.10459" lon="1.43024">
        <ele>136</ele>
        <time>2022-08-15T10:45:59+02:00</time>
      </trkpt>
      <trkpt lat="49.10455" lon="1.43019">
        <ele>136</ele>
        <time>2022-08-15T10:46:15+02:00</time>
      </trkpt>
      <trkpt lat="49.10443" lon="1.43005">
        <ele>138</ele>
        <time>2022-08-15T10:46:33+02:00</time>
      </trkpt>
      <trkpt lat="49.10431" lon="1.42986">
        <ele>139</ele>
        <time>2022-08-15T10:46:50+02:00</time>
      </trkpt>
      <trkpt lat="49.10427" lon="1.42975">
        <ele>140</ele>
        <time>2022-08-15T10:47:09+02:00</time>
      </trkpt>
      <trkpt lat="49.10425" lon="1.42962">
        <ele>141</ele>
        <time>2022-08-15T10:47:26+02:00</time>
      </trkpt>
      <trkpt lat="49.10427" lon="1.42955">
        <ele>142</ele>
        <time>2022-08-15T10:47:58+02:00</time>
      </trkpt>
      <trkpt lat="49.10422" lon="1.4294">
        <ele>143</ele>
        <time>2022-08-15T10:48:15+02:00</time>
      </trkpt>
      <trkpt lat="49.10431" lon="1.42937">
        <ele>143</ele>
        <time>2022-08-15T10:48:30+02:00</time>
      </trkpt>
      <trkpt lat="49.10441" lon="1.42927">
        <ele>144</ele>
        <time>2022-08-15T10:48:46+02:00</time>
      </trkpt>
      <trkpt lat="49.1045" lon="1.42919">
        <ele>144</ele>
        <time>2022-08-15T10:49:00+02:00</time>
      </trkpt>
      <trkpt lat="49.10463" lon="1.42909">
        <ele>145</ele>
        <time>2022-08-15T10:49:14+02:00</time>
      </trkpt>
      <trkpt lat="49.10466" lon="1.42906">
        <ele>145</ele>
        <time>2022-08-15T10:49:22+02:00</time>
      </trkpt>
      <trkpt lat="49.10493" lon="1.42886">
        <ele>145</ele>
        <time>2022-08-15T10:49:36+02:00</time>
      </trkpt>
      <trkpt lat="49.10503" lon="1.42875">
        <ele>145</ele>
        <time>2022-08-15T10:49:48+02:00</time>
      </trkpt>
      <trkpt lat="49.10512" lon="1.42868">
        <ele>145</ele>
        <time>2022-08-15T10:50:01+02:00</time>
      </trkpt>
      <trkpt lat="49.10529" lon="1.42854">
        <ele>145</ele>
        <time>2022-08-15T10:50:17+02:00</time>
      </trkpt>
      <trkpt lat="49.10545" lon="1.42837">
        <ele>145</ele>
        <time>2022-08-15T10:50:33+02:00</time>
      </trkpt>
      <trkpt lat="49.10546" lon="1.42834">
        <ele>145</ele>
        <time>2022-08-15T10:50:37+02:00</time>
      </trkpt>
      <trkpt lat="49.10556" lon="1.4283">
        <ele>145</ele>
        <time>2022-08-15T10:50:51+02:00</time>
      </trkpt>
      <trkpt lat="49.10559" lon="1.42828">
        <ele>145</ele>
        <time>2022-08-15T10:50:57+02:00</time>
      </trkpt>
      <trkpt lat="49.10569" lon="1.42821">
        <ele>145</ele>
        <time>2022-08-15T10:51:09+02:00</time>
      </trkpt>
      <trkpt lat="49.10577" lon="1.42812">
        <ele>145</ele>
        <time>2022-08-15T10:51:24+02:00</time>
      </trkpt>
      <trkpt lat="49.10586" lon="1.42805">
        <ele>145</ele>
        <time>2022-08-15T10:51:38+02:00</time>
      </trkpt>
      <trkpt lat="49.10597" lon="1.42794">
        <ele>144</ele>
        <time>2022-08-15T10:51:51+02:00</time>
      </trkpt>
      <trkpt lat="49.10609" lon="1.4278">
        <ele>144</ele>
        <time>2022-08-15T10:52:08+02:00</time>
      </trkpt>
      <trkpt lat="49.10623" lon="1.42762">
        <ele>143</ele>
        <time>2022-08-15T10:52:19+02:00</time>
      </trkpt>
      <trkpt lat="49.10645" lon="1.42735">
        <ele>143</ele>
        <time>2022-08-15T10:52:34+02:00</time>
      </trkpt>
      <trkpt lat="49.10648" lon="1.42719">
        <ele>143</ele>
        <time>2022-08-15T10:52:48+02:00</time>
      </trkpt>
      <trkpt lat="49.1065" lon="1.42712">
        <ele>143</ele>
        <time>2022-08-15T10:52:55+02:00</time>
      </trkpt>
      <trkpt lat="49.10664" lon="1.42687">
        <ele>143</ele>
        <time>2022-08-15T10:53:11+02:00</time>
      </trkpt>
      <trkpt lat="49.10672" lon="1.42663">
        <ele>142</ele>
        <time>2022-08-15T10:53:26+02:00</time>
      </trkpt>
      <trkpt lat="49.10677" lon="1.42647">
        <ele>142</ele>
        <time>2022-08-15T10:53:42+02:00</time>
      </trkpt>
      <trkpt lat="49.10685" lon="1.42619">
        <ele>142</ele>
        <time>2022-08-15T10:53:58+02:00</time>
      </trkpt>
      <trkpt lat="49.10697" lon="1.42594">
        <ele>141</ele>
        <time>2022-08-15T10:54:13+02:00</time>
      </trkpt>
      <trkpt lat="49.10709" lon="1.42566">
        <ele>141</ele>
        <time>2022-08-15T10:54:29+02:00</time>
      </trkpt>
      <trkpt lat="49.10717" lon="1.42539">
        <ele>140</ele>
        <time>2022-08-15T10:54:44+02:00</time>
      </trkpt>
      <trkpt lat="49.10717" lon="1.42534">
        <ele>140</ele>
        <time>2022-08-15T10:54:57+02:00</time>
      </trkpt>
      <trkpt lat="49.10728" lon="1.42511">
        <ele>140</ele>
        <time>2022-08-15T10:55:11+02:00</time>
      </trkpt>
      <trkpt lat="49.10737" lon="1.42488">
        <ele>139</ele>
        <time>2022-08-15T10:55:28+02:00</time>
      </trkpt>
      <trkpt lat="49.10743" lon="1.42471">
        <ele>140</ele>
        <time>2022-08-15T10:55:42+02:00</time>
      </trkpt>
      <trkpt lat="49.10748" lon="1.42456">
        <ele>140</ele>
        <time>2022-08-15T10:55:54+02:00</time>
      </trkpt>
      <trkpt lat="49.10756" lon="1.42442">
        <ele>140</ele>
        <time>2022-08-15T10:56:11+02:00</time>
      </trkpt>
      <trkpt lat="49.1076" lon="1.42442">
        <ele>140</ele>
        <time>2022-08-15T10:56:51+02:00</time>
      </trkpt>
      <trkpt lat="49.10771" lon="1.4244">
        <ele>140</ele>
        <time>2022-08-15T10:57:06+02:00</time>
      </trkpt>
      <trkpt lat="49.10777" lon="1.42443">
        <ele>140</ele>
        <time>2022-08-15T10:57:28+02:00</time>
      </trkpt>
      <trkpt lat="49.10777" lon="1.42443">
        <ele>140</ele>
        <time>2022-08-15T10:57:29+02:00</time>
      </trkpt>
      <trkpt lat="49.1079" lon="1.42447">
        <ele>140</ele>
        <time>2022-08-15T10:57:42+02:00</time>
      </trkpt>
      <trkpt lat="49.108" lon="1.42448">
        <ele>140</ele>
        <time>2022-08-15T10:57:57+02:00</time>
      </trkpt>
      <trkpt lat="49.10814" lon="1.42449">
        <ele>141</ele>
        <time>2022-08-15T10:58:12+02:00</time>
      </trkpt>
      <trkpt lat="49.10825" lon="1.42452">
        <ele>141</ele>
        <time>2022-08-15T10:58:24+02:00</time>
      </trkpt>
      <trkpt lat="49.10834" lon="1.42456">
        <ele>141</ele>
        <time>2022-08-15T10:58:39+02:00</time>
      </trkpt>
      <trkpt lat="49.10852" lon="1.42458">
        <ele>141</ele>
        <time>2022-08-15T10:58:54+02:00</time>
      </trkpt>
      <trkpt lat="49.10861" lon="1.42461">
        <ele>141</ele>
        <time>2022-08-15T10:59:07+02:00</time>
      </trkpt>
      <trkpt lat="49.10877" lon="1.42466">
        <ele>141</ele>
        <time>2022-08-15T10:59:25+02:00</time>
      </trkpt>
      <trkpt lat="49.10888" lon="1.42466">
        <ele>141</ele>
        <time>2022-08-15T10:59:39+02:00</time>
      </trkpt>
      <trkpt lat="49.10894" lon="1.42466">
        <ele>141</ele>
        <time>2022-08-15T10:59:44+02:00</time>
      </trkpt>
      <trkpt lat="49.10908" lon="1.42469">
        <ele>141</ele>
        <time>2022-08-15T11:00:00+02:00</time>
      </trkpt>
      <trkpt lat="49.10924" lon="1.42472">
        <ele>141</ele>
        <time>2022-08-15T11:00:15+02:00</time>
      </trkpt>
      <trkpt lat="49.10931" lon="1.42476">
        <ele>141</ele>
        <time>2022-08-15T11:00:30+02:00</time>
      </trkpt>
      <trkpt lat="49.10942" lon="1.42478">
        <ele>141</ele>
        <time>2022-08-15T11:00:44+02:00</time>
      </trkpt>
      <trkpt lat="49.10954" lon="1.42481">
        <ele>142</ele>
        <time>2022-08-15T11:00:59+02:00</time>
      </trkpt>
      <trkpt lat="49.10968" lon="1.42482">
        <ele>142</ele>
        <time>2022-08-15T11:01:14+02:00</time>
      </trkpt>
      <trkpt lat="49.10976" lon="1.42484">
        <ele>142</ele>
        <time>2022-08-15T11:01:23+02:00</time>
      </trkpt>
      <trkpt lat="49.10979" lon="1.42484">
        <ele>142</ele>
        <time>2022-08-15T11:01:25+02:00</time>
      </trkpt>
      <trkpt lat="49.10999" lon="1.42483">
        <ele>143</ele>
        <time>2022-08-15T11:01:40+02:00</time>
      </trkpt>
      <trkpt lat="49.11007" lon="1.42482">
        <ele>143</ele>
        <time>2022-08-15T11:01:53+02:00</time>
      </trkpt>
      <trkpt lat="49.11017" lon="1.42482">
        <ele>143</ele>
        <time>2022-08-15T11:02:09+02:00</time>
      </trkpt>
      <trkpt lat="49.1103" lon="1.42487">
        <ele>143</ele>
        <time>2022-08-15T11:02:24+02:00</time>
      </trkpt>
      <trkpt lat="49.1104" lon="1.42494">
        <ele>143</ele>
        <time>2022-08-15T11:02:39+02:00</time>
      </trkpt>
      <trkpt lat="49.11047" lon="1.42496">
        <ele>143</ele>
        <time>2022-08-15T11:03:00+02:00</time>
      </trkpt>
      <trkpt lat="49.1106" lon="1.42497">
        <ele>143</ele>
        <time>2022-08-15T11:03:13+02:00</time>
      </trkpt>
      <trkpt lat="49.11073" lon="1.425">
        <ele>143</ele>
        <time>2022-08-15T11:03:26+02:00</time>
      </trkpt>
      <trkpt lat="49.11085" lon="1.42503">
        <ele>143</ele>
        <time>2022-08-15T11:03:39+02:00</time>
      </trkpt>
      <trkpt lat="49.11093" lon="1.42504">
        <ele>142</ele>
        <time>2022-08-15T11:03:50+02:00</time>
      </trkpt>
      <trkpt lat="49.11115" lon="1.42507">
        <ele>141</ele>
        <time>2022-08-15T11:04:05+02:00</time>
      </trkpt>
      <trkpt lat="49.11129" lon="1.42504">
        <ele>141</ele>
        <time>2022-08-15T11:04:19+02:00</time>
      </trkpt>
      <trkpt lat="49.11144" lon="1.4251">
        <ele>140</ele>
        <time>2022-08-15T11:04:34+02:00</time>
      </trkpt>
      <trkpt lat="49.11157" lon="1.42515">
        <ele>139</ele>
        <time>2022-08-15T11:04:46+02:00</time>
      </trkpt>
      <trkpt lat="49.11161" lon="1.42514">
        <ele>139</ele>
        <time>2022-08-15T11:04:50+02:00</time>
      </trkpt>
      <trkpt lat="49.11176" lon="1.42521">
        <ele>137</ele>
        <time>2022-08-15T11:05:06+02:00</time>
      </trkpt>
      <trkpt lat="49.11199" lon="1.4252">
        <ele>135</ele>
        <time>2022-08-15T11:05:23+02:00</time>
      </trkpt>
      <trkpt lat="49.11215" lon="1.42522">
        <ele>133</ele>
        <time>2022-08-15T11:05:38+02:00</time>
      </trkpt>
      <trkpt lat="49.11229" lon="1.42522">
        <ele>132</ele>
        <time>2022-08-15T11:05:51+02:00</time>
      </trkpt>
      <trkpt lat="49.11249" lon="1.42526">
        <ele>130</ele>
        <time>2022-08-15T11:06:08+02:00</time>
      </trkpt>
      <trkpt lat="49.11267" lon="1.4253">
        <ele>129</ele>
        <time>2022-08-15T11:06:23+02:00</time>
      </trkpt>
      <trkpt lat="49.11284" lon="1.42539">
        <ele>128</ele>
        <time>2022-08-15T11:06:38+02:00</time>
      </trkpt>
      <trkpt lat="49.11299" lon="1.42545">
        <ele>128</ele>
        <time>2022-08-15T11:06:52+02:00</time>
      </trkpt>
      <trkpt lat="49.11318" lon="1.42545">
        <ele>127</ele>
        <time>2022-08-15T11:07:08+02:00</time>
      </trkpt>
      <trkpt lat="49.11332" lon="1.42548">
        <ele>127</ele>
        <time>2022-08-15T11:07:23+02:00</time>
      </trkpt>
      <trkpt lat="49.11346" lon="1.42548">
        <ele>127</ele>
        <time>2022-08-15T11:07:36+02:00</time>
      </trkpt>
      <trkpt lat="49.11363" lon="1.4256">
        <ele>126</ele>
        <time>2022-08-15T11:07:51+02:00</time>
      </trkpt>
      <trkpt lat="49.11377" lon="1.42568">
        <ele>126</ele>
        <time>2022-08-15T11:08:05+02:00</time>
      </trkpt>
      <trkpt lat="49.11393" lon="1.4258">
        <ele>125</ele>
        <time>2022-08-15T11:08:20+02:00</time>
      </trkpt>
      <trkpt lat="49.11408" lon="1.42586">
        <ele>125</ele>
        <time>2022-08-15T11:08:34+02:00</time>
      </trkpt>
      <trkpt lat="49.11422" lon="1.42591">
        <ele>124</ele>
        <time>2022-08-15T11:08:49+02:00</time>
      </trkpt>
      <trkpt lat="49.11443" lon="1.42606">
        <ele>122</ele>
        <time>2022-08-15T11:09:07+02:00</time>
      </trkpt>
      <trkpt lat="49.11445" lon="1.42585">
        <ele>124</ele>
        <time>2022-08-15T11:09:21+02:00</time>
      </trkpt>
      <trkpt lat="49.11442" lon="1.42577">
        <ele>125</ele>
        <time>2022-08-15T11:09:29+02:00</time>
      </trkpt>
      <trkpt lat="49.11441" lon="1.4257">
        <ele>125</ele>
        <time>2022-08-15T11:09:52+02:00</time>
      </trkpt>
      <trkpt lat="49.11438" lon="1.4256">
        <ele>126</ele>
        <time>2022-08-15T11:10:04+02:00</time>
      </trkpt>
      <trkpt lat="49.11441" lon="1.42549">
        <ele>127</ele>
        <time>2022-08-15T11:10:18+02:00</time>
      </trkpt>
      <trkpt lat="49.11453" lon="1.42533">
        <ele>128</ele>
        <time>2022-08-15T11:10:32+02:00</time>
      </trkpt>
      <trkpt lat="49.11464" lon="1.42522">
        <ele>128</ele>
        <time>2022-08-15T11:10:46+02:00</time>
      </trkpt>
      <trkpt lat="49.1147" lon="1.42514">
        <ele>129</ele>
        <time>2022-08-15T11:10:55+02:00</time>
      </trkpt>
      <trkpt lat="49.11472" lon="1.42497">
        <ele>130</ele>
        <time>2022-08-15T11:11:08+02:00</time>
      </trkpt>
      <trkpt lat="49.11474" lon="1.42487">
        <ele>130</ele>
        <time>2022-08-15T11:11:15+02:00</time>
      </trkpt>
      <trkpt lat="49.11475" lon="1.42469">
        <ele>131</ele>
        <time>2022-08-15T11:11:28+02:00</time>
      </trkpt>
      <trkpt lat="49.11475" lon="1.42468">
        <ele>132</ele>
        <time>2022-08-15T11:11:29+02:00</time>
      </trkpt>
      <trkpt lat="49.1148" lon="1.42445">
        <ele>133</ele>
        <time>2022-08-15T11:11:44+02:00</time>
      </trkpt>
      <trkpt lat="49.11474" lon="1.4243">
        <ele>134</ele>
        <time>2022-08-15T11:11:57+02:00</time>
      </trkpt>
      <trkpt lat="49.1147" lon="1.42425">
        <ele>134</ele>
        <time>2022-08-15T11:12:10+02:00</time>
      </trkpt>
      <trkpt lat="49.11457" lon="1.42407">
        <ele>135</ele>
        <time>2022-08-15T11:12:24+02:00</time>
      </trkpt>
      <trkpt lat="49.11453" lon="1.42397">
        <ele>135</ele>
        <time>2022-08-15T11:12:39+02:00</time>
      </trkpt>
      <trkpt lat="49.11441" lon="1.42349">
        <ele>136</ele>
        <time>2022-08-15T11:13:32+02:00</time>
      </trkpt>
      <trkpt lat="49.11438" lon="1.42339">
        <ele>136</ele>
        <time>2022-08-15T11:13:43+02:00</time>
      </trkpt>
      <trkpt lat="49.11428" lon="1.42316">
        <ele>137</ele>
        <time>2022-08-15T11:13:57+02:00</time>
      </trkpt>
      <trkpt lat="49.11425" lon="1.42298">
        <ele>137</ele>
        <time>2022-08-15T11:14:14+02:00</time>
      </trkpt>
      <trkpt lat="49.11424" lon="1.42294">
        <ele>138</ele>
        <time>2022-08-15T11:14:17+02:00</time>
      </trkpt>
      <trkpt lat="49.11419" lon="1.42274">
        <ele>138</ele>
        <time>2022-08-15T11:14:33+02:00</time>
      </trkpt>
      <trkpt lat="49.1142" lon="1.42249">
        <ele>139</ele>
        <time>2022-08-15T11:14:50+02:00</time>
      </trkpt>
      <trkpt lat="49.11411" lon="1.42225">
        <ele>140</ele>
        <time>2022-08-15T11:15:07+02:00</time>
      </trkpt>
      <trkpt lat="49.11406" lon="1.42213">
        <ele>140</ele>
        <time>2022-08-15T11:15:21+02:00</time>
      </trkpt>
      <trkpt lat="49.11404" lon="1.42193">
        <ele>140</ele>
        <time>2022-08-15T11:15:38+02:00</time>
      </trkpt>
      <trkpt lat="49.11402" lon="1.42192">
        <ele>140</ele>
        <time>2022-08-15T11:15:59+02:00</time>
      </trkpt>
      <trkpt lat="49.11398" lon="1.42166">
        <ele>141</ele>
        <time>2022-08-15T11:16:14+02:00</time>
      </trkpt>
      <trkpt lat="49.11395" lon="1.42152">
        <ele>141</ele>
        <time>2022-08-15T11:16:24+02:00</time>
      </trkpt>
      <trkpt lat="49.11383" lon="1.42128">
        <ele>141</ele>
        <time>2022-08-15T11:16:38+02:00</time>
      </trkpt>
      <trkpt lat="49.11378" lon="1.42112">
        <ele>142</ele>
        <time>2022-08-15T11:16:50+02:00</time>
      </trkpt>
      <trkpt lat="49.1137" lon="1.42093">
        <ele>142</ele>
        <time>2022-08-15T11:17:02+02:00</time>
      </trkpt>
      <trkpt lat="49.11363" lon="1.42068">
        <ele>142</ele>
        <time>2022-08-15T11:17:16+02:00</time>
      </trkpt>
      <trkpt lat="49.11351" lon="1.42046">
        <ele>141</ele>
        <time>2022-08-15T11:17:30+02:00</time>
      </trkpt>
      <trkpt lat="49.11342" lon="1.42028">
        <ele>141</ele>
        <time>2022-08-15T11:17:43+02:00</time>
      </trkpt>
      <trkpt lat="49.11334" lon="1.42008">
        <ele>140</ele>
        <time>2022-08-15T11:17:57+02:00</time>
      </trkpt>
      <trkpt lat="49.11326" lon="1.41991">
        <ele>140</ele>
        <time>2022-08-15T11:18:12+02:00</time>
      </trkpt>
      <trkpt lat="49.11317" lon="1.41975">
        <ele>140</ele>
        <time>2022-08-15T11:18:25+02:00</time>
      </trkpt>
      <trkpt lat="49.11309" lon="1.41956">
        <ele>140</ele>
        <time>2022-08-15T11:18:40+02:00</time>
      </trkpt>
      <trkpt lat="49.113" lon="1.41938">
        <ele>140</ele>
        <time>2022-08-15T11:18:54+02:00</time>
      </trkpt>
      <trkpt lat="49.11291" lon="1.41919">
        <ele>140</ele>
        <time>2022-08-15T11:19:09+02:00</time>
      </trkpt>
      <trkpt lat="49.11286" lon="1.41903">
        <ele>140</ele>
        <time>2022-08-15T11:19:23+02:00</time>
      </trkpt>
      <trkpt lat="49.11276" lon="1.41885">
        <ele>140</ele>
        <time>2022-08-15T11:19:35+02:00</time>
      </trkpt>
      <trkpt lat="49.11265" lon="1.41864">
        <ele>139</ele>
        <time>2022-08-15T11:19:51+02:00</time>
      </trkpt>
      <trkpt lat="49.11256" lon="1.41845">
        <ele>139</ele>
        <time>2022-08-15T11:20:03+02:00</time>
      </trkpt>
      <trkpt lat="49.11249" lon="1.41829">
        <ele>139</ele>
        <time>2022-08-15T11:20:16+02:00</time>
      </trkpt>
      <trkpt lat="49.11242" lon="1.41809">
        <ele>140</ele>
        <time>2022-08-15T11:20:31+02:00</time>
      </trkpt>
      <trkpt lat="49.11233" lon="1.41793">
        <ele>140</ele>
        <time>2022-08-15T11:20:43+02:00</time>
      </trkpt>
      <trkpt lat="49.11225" lon="1.41776">
        <ele>140</ele>
        <time>2022-08-15T11:20:56+02:00</time>
      </trkpt>
      <trkpt lat="49.11213" lon="1.41756">
        <ele>141</ele>
        <time>2022-08-15T11:21:09+02:00</time>
      </trkpt>
      <trkpt lat="49.11206" lon="1.4174">
        <ele>140</ele>
        <time>2022-08-15T11:21:24+02:00</time>
      </trkpt>
      <trkpt lat="49.11198" lon="1.4172">
        <ele>140</ele>
        <time>2022-08-15T11:21:40+02:00</time>
      </trkpt>
      <trkpt lat="49.11187" lon="1.41703">
        <ele>141</ele>
        <time>2022-08-15T11:21:54+02:00</time>
      </trkpt>
      <trkpt lat="49.11182" lon="1.41687">
        <ele>141</ele>
        <time>2022-08-15T11:22:07+02:00</time>
      </trkpt>
      <trkpt lat="49.11181" lon="1.41685">
        <ele>141</ele>
        <time>2022-08-15T11:22:09+02:00</time>
      </trkpt>
      <trkpt lat="49.11168" lon="1.41664">
        <ele>141</ele>
        <time>2022-08-15T11:22:23+02:00</time>
      </trkpt>
      <trkpt lat="49.11159" lon="1.41652">
        <ele>141</ele>
        <time>2022-08-15T11:22:35+02:00</time>
      </trkpt>
      <trkpt lat="49.11152" lon="1.41636">
        <ele>141</ele>
        <time>2022-08-15T11:22:48+02:00</time>
      </trkpt>
      <trkpt lat="49.11143" lon="1.41621">
        <ele>141</ele>
        <time>2022-08-15T11:23:01+02:00</time>
      </trkpt>
      <trkpt lat="49.11135" lon="1.41607">
        <ele>140</ele>
        <time>2022-08-15T11:23:11+02:00</time>
      </trkpt>
      <trkpt lat="49.11125" lon="1.41589">
        <ele>140</ele>
        <time>2022-08-15T11:23:25+02:00</time>
      </trkpt>
      <trkpt lat="49.11118" lon="1.41574">
        <ele>140</ele>
        <time>2022-08-15T11:23:41+02:00</time>
      </trkpt>
      <trkpt lat="49.11111" lon="1.4156">
        <ele>140</ele>
        <time>2022-08-15T11:23:55+02:00</time>
      </trkpt>
      <trkpt lat="49.11102" lon="1.41543">
        <ele>139</ele>
        <time>2022-08-15T11:24:09+02:00</time>
      </trkpt>
      <trkpt lat="49.11102" lon="1.41542">
        <ele>139</ele>
        <time>2022-08-15T11:24:10+02:00</time>
      </trkpt>
      <trkpt lat="49.11088" lon="1.41525">
        <ele>139</ele>
        <time>2022-08-15T11:24:25+02:00</time>
      </trkpt>
      <trkpt lat="49.11082" lon="1.41514">
        <ele>138</ele>
        <time>2022-08-15T11:24:41+02:00</time>
      </trkpt>
      <trkpt lat="49.11074" lon="1.41495">
        <ele>138</ele>
        <time>2022-08-15T11:24:57+02:00</time>
      </trkpt>
      <trkpt lat="49.11069" lon="1.41487">
        <ele>138</ele>
        <time>2022-08-15T11:25:11+02:00</time>
      </trkpt>
      <trkpt lat="49.11069" lon="1.41478">
        <ele>138</ele>
        <time>2022-08-15T11:25:26+02:00</time>
      </trkpt>
      <trkpt lat="49.11077" lon="1.41472">
        <ele>138</ele>
        <time>2022-08-15T11:25:44+02:00</time>
      </trkpt>
      <trkpt lat="49.11079" lon="1.41471">
        <ele>138</ele>
        <time>2022-08-15T11:25:48+02:00</time>
      </trkpt>
      <trkpt lat="49.11096" lon="1.41466">
        <ele>138</ele>
        <time>2022-08-15T11:26:05+02:00</time>
      </trkpt>
      <trkpt lat="49.1111" lon="1.41463">
        <ele>138</ele>
        <time>2022-08-15T11:26:20+02:00</time>
      </trkpt>
      <trkpt lat="49.1112" lon="1.4146">
        <ele>138</ele>
        <time>2022-08-15T11:26:34+02:00</time>
      </trkpt>
      <trkpt lat="49.11137" lon="1.41455">
        <ele>137</ele>
        <time>2022-08-15T11:26:50+02:00</time>
      </trkpt>
      <trkpt lat="49.11154" lon="1.4145">
        <ele>137</ele>
        <time>2022-08-15T11:27:07+02:00</time>
      </trkpt>
      <trkpt lat="49.1117" lon="1.41448">
        <ele>137</ele>
        <time>2022-08-15T11:27:22+02:00</time>
      </trkpt>
      <trkpt lat="49.11185" lon="1.41443">
        <ele>137</ele>
        <time>2022-08-15T11:27:38+02:00</time>
      </trkpt>
      <trkpt lat="49.11196" lon="1.41441">
        <ele>137</ele>
        <time>2022-08-15T11:27:51+02:00</time>
      </trkpt>
      <trkpt lat="49.1121" lon="1.41436">
        <ele>137</ele>
        <time>2022-08-15T11:28:08+02:00</time>
      </trkpt>
      <trkpt lat="49.11226" lon="1.41433">
        <ele>136</ele>
        <time>2022-08-15T11:28:23+02:00</time>
      </trkpt>
      <trkpt lat="49.11243" lon="1.41429">
        <ele>136</ele>
        <time>2022-08-15T11:28:39+02:00</time>
      </trkpt>
      <trkpt lat="49.11251" lon="1.41425">
        <ele>136</ele>
        <time>2022-08-15T11:28:54+02:00</time>
      </trkpt>
      <trkpt lat="49.11265" lon="1.41422">
        <ele>136</ele>
        <time>2022-08-15T11:29:08+02:00</time>
      </trkpt>
      <trkpt lat="49.11283" lon="1.41416">
        <ele>135</ele>
        <time>2022-08-15T11:29:24+02:00</time>
      </trkpt>
      <trkpt lat="49.11301" lon="1.41412">
        <ele>135</ele>
        <time>2022-08-15T11:29:41+02:00</time>
      </trkpt>
      <trkpt lat="49.11318" lon="1.41405">
        <ele>134</ele>
        <time>2022-08-15T11:29:58+02:00</time>
      </trkpt>
      <trkpt lat="49.11332" lon="1.41399">
        <ele>134</ele>
        <time>2022-08-15T11:30:14+02:00</time>
      </trkpt>
      <trkpt lat="49.11349" lon="1.41396">
        <ele>134</ele>
        <time>2022-08-15T11:30:31+02:00</time>
      </trkpt>
      <trkpt lat="49.11365" lon="1.41392">
        <ele>134</ele>
        <time>2022-08-15T11:30:45+02:00</time>
      </trkpt>
      <trkpt lat="49.11382" lon="1.41389">
        <ele>134</ele>
        <time>2022-08-15T11:31:00+02:00</time>
      </trkpt>
      <trkpt lat="49.11385" lon="1.41381">
        <ele>134</ele>
        <time>2022-08-15T11:31:07+02:00</time>
      </trkpt>
      <trkpt lat="49.11385" lon="1.41369">
        <ele>133</ele>
        <time>2022-08-15T11:31:23+02:00</time>
      </trkpt>
      <trkpt lat="49.11384" lon="1.41368">
        <ele>133</ele>
        <time>2022-08-15T11:31:43+02:00</time>
      </trkpt>
      <trkpt lat="49.1138" lon="1.41343">
        <ele>133</ele>
        <time>2022-08-15T11:31:59+02:00</time>
      </trkpt>
      <trkpt lat="49.11376" lon="1.41319">
        <ele>132</ele>
        <time>2022-08-15T11:32:14+02:00</time>
      </trkpt>
      <trkpt lat="49.1137" lon="1.41287">
        <ele>132</ele>
        <time>2022-08-15T11:32:35+02:00</time>
      </trkpt>
      <trkpt lat="49.11366" lon="1.41263">
        <ele>132</ele>
        <time>2022-08-15T11:32:50+02:00</time>
      </trkpt>
      <trkpt lat="49.11363" lon="1.41245">
        <ele>132</ele>
        <time>2022-08-15T11:33:02+02:00</time>
      </trkpt>
      <trkpt lat="49.11361" lon="1.41235">
        <ele>132</ele>
        <time>2022-08-15T11:33:13+02:00</time>
      </trkpt>
      <trkpt lat="49.11357" lon="1.41209">
        <ele>132</ele>
        <time>2022-08-15T11:33:29+02:00</time>
      </trkpt>
      <trkpt lat="49.11354" lon="1.4119">
        <ele>132</ele>
        <time>2022-08-15T11:33:46+02:00</time>
      </trkpt>
      <trkpt lat="49.11351" lon="1.41179">
        <ele>132</ele>
        <time>2022-08-15T11:34:00+02:00</time>
      </trkpt>
      <trkpt lat="49.11347" lon="1.41156">
        <ele>132</ele>
        <time>2022-08-15T11:34:16+02:00</time>
      </trkpt>
      <trkpt lat="49.11342" lon="1.41131">
        <ele>132</ele>
        <time>2022-08-15T11:34:32+02:00</time>
      </trkpt>
      <trkpt lat="49.11338" lon="1.41111">
        <ele>132</ele>
        <time>2022-08-15T11:34:45+02:00</time>
      </trkpt>
      <trkpt lat="49.11336" lon="1.41096">
        <ele>132</ele>
        <time>2022-08-15T11:34:55+02:00</time>
      </trkpt>
      <trkpt lat="49.11334" lon="1.4108">
        <ele>132</ele>
        <time>2022-08-15T11:35:09+02:00</time>
      </trkpt>
      <trkpt lat="49.11334" lon="1.41081">
        <ele>132</ele>
        <time>2022-08-15T11:35:24+02:00</time>
      </trkpt>
      <trkpt lat="49.11334" lon="1.41077">
        <ele>132</ele>
        <time>2022-08-15T11:35:26+02:00</time>
      </trkpt>
      <trkpt lat="49.11329" lon="1.41051">
        <ele>132</ele>
        <time>2022-08-15T11:35:42+02:00</time>
      </trkpt>
      <trkpt lat="49.11328" lon="1.41049">
        <ele>132</ele>
        <time>2022-08-15T11:35:44+02:00</time>
      </trkpt>
      <trkpt lat="49.11324" lon="1.41025">
        <ele>133</ele>
        <time>2022-08-15T11:35:59+02:00</time>
      </trkpt>
      <trkpt lat="49.11321" lon="1.41">
        <ele>133</ele>
        <time>2022-08-15T11:36:15+02:00</time>
      </trkpt>
      <trkpt lat="49.1132" lon="1.40996">
        <ele>133</ele>
        <time>2022-08-15T11:36:18+02:00</time>
      </trkpt>
      <trkpt lat="49.1132" lon="1.40993">
        <ele>133</ele>
        <time>2022-08-15T11:36:20+02:00</time>
      </trkpt>
      <trkpt lat="49.11319" lon="1.40991">
        <ele>133</ele>
        <time>2022-08-15T11:36:22+02:00</time>
      </trkpt>
      <trkpt lat="49.11316" lon="1.40972">
        <ele>134</ele>
        <time>2022-08-15T11:36:35+02:00</time>
      </trkpt>
      <trkpt lat="49.11313" lon="1.40952">
        <ele>134</ele>
        <time>2022-08-15T11:36:48+02:00</time>
      </trkpt>
      <trkpt lat="49.11309" lon="1.40929">
        <ele>135</ele>
        <time>2022-08-15T11:37:04+02:00</time>
      </trkpt>
      <trkpt lat="49.11306" lon="1.40908">
        <ele>134</ele>
        <time>2022-08-15T11:37:20+02:00</time>
      </trkpt>
      <trkpt lat="49.11306" lon="1.40903">
        <ele>134</ele>
        <time>2022-08-15T11:37:45+02:00</time>
      </trkpt>
      <trkpt lat="49.11302" lon="1.40879">
        <ele>133</ele>
        <time>2022-08-15T11:38:00+02:00</time>
      </trkpt>
      <trkpt lat="49.11296" lon="1.40847">
        <ele>132</ele>
        <time>2022-08-15T11:38:18+02:00</time>
      </trkpt>
      <trkpt lat="49.11291" lon="1.40826">
        <ele>132</ele>
        <time>2022-08-15T11:38:36+02:00</time>
      </trkpt>
      <trkpt lat="49.11287" lon="1.40805">
        <ele>131</ele>
        <time>2022-08-15T11:38:52+02:00</time>
      </trkpt>
      <trkpt lat="49.11282" lon="1.40786">
        <ele>131</ele>
        <time>2022-08-15T11:39:09+02:00</time>
      </trkpt>
      <trkpt lat="49.11281" lon="1.40779">
        <ele>131</ele>
        <time>2022-08-15T11:39:20+02:00</time>
      </trkpt>
      <trkpt lat="49.11278" lon="1.40762">
        <ele>130</ele>
        <time>2022-08-15T11:39:35+02:00</time>
      </trkpt>
      <trkpt lat="49.11272" lon="1.40732">
        <ele>130</ele>
        <time>2022-08-15T11:39:54+02:00</time>
      </trkpt>
      <trkpt lat="49.11266" lon="1.40706">
        <ele>130</ele>
        <time>2022-08-15T11:40:10+02:00</time>
      </trkpt>
      <trkpt lat="49.11265" lon="1.40696">
        <ele>130</ele>
        <time>2022-08-15T11:40:16+02:00</time>
      </trkpt>
      <trkpt lat="49.11261" lon="1.40678">
        <ele>130</ele>
        <time>2022-08-15T11:40:27+02:00</time>
      </trkpt>
      <trkpt lat="49.11259" lon="1.40673">
        <ele>130</ele>
        <time>2022-08-15T11:40:31+02:00</time>
      </trkpt>
      <trkpt lat="49.11256" lon="1.40652">
        <ele>130</ele>
        <time>2022-08-15T11:40:45+02:00</time>
      </trkpt>
      <trkpt lat="49.11257" lon="1.40648">
        <ele>130</ele>
        <time>2022-08-15T11:40:48+02:00</time>
      </trkpt>
      <trkpt lat="49.11274" lon="1.40659">
        <ele>130</ele>
        <time>2022-08-15T11:41:05+02:00</time>
      </trkpt>
      <trkpt lat="49.11284" lon="1.40666">
        <ele>130</ele>
        <time>2022-08-15T11:41:17+02:00</time>
      </trkpt>
      <trkpt lat="49.11305" lon="1.40681">
        <ele>130</ele>
        <time>2022-08-15T11:41:37+02:00</time>
      </trkpt>
      <trkpt lat="49.1131" lon="1.40681">
        <ele>130</ele>
        <time>2022-08-15T11:41:41+02:00</time>
      </trkpt>
      <trkpt lat="49.11317" lon="1.40646">
        <ele>129</ele>
        <time>2022-08-15T11:42:01+02:00</time>
      </trkpt>
      <trkpt lat="49.11324" lon="1.40612">
        <ele>128</ele>
        <time>2022-08-15T11:42:21+02:00</time>
      </trkpt>
      <trkpt lat="49.11332" lon="1.40578">
        <ele>126</ele>
        <time>2022-08-15T11:42:41+02:00</time>
      </trkpt>
      <trkpt lat="49.11333" lon="1.40575">
        <ele>126</ele>
        <time>2022-08-15T11:42:43+02:00</time>
      </trkpt>
      <trkpt lat="49.11337" lon="1.40564">
        <ele>126</ele>
        <time>2022-08-15T11:42:50+02:00</time>
      </trkpt>
      <trkpt lat="49.11343" lon="1.40533">
        <ele>125</ele>
        <time>2022-08-15T11:43:08+02:00</time>
      </trkpt>
      <trkpt lat="49.11344" lon="1.40526">
        <ele>125</ele>
        <time>2022-08-15T11:43:12+02:00</time>
      </trkpt>
      <trkpt lat="49.11348" lon="1.40499">
        <ele>125</ele>
        <time>2022-08-15T11:43:29+02:00</time>
      </trkpt>
      <trkpt lat="49.11354" lon="1.4047">
        <ele>125</ele>
        <time>2022-08-15T11:43:47+02:00</time>
      </trkpt>
      <trkpt lat="49.11357" lon="1.40448">
        <ele>124</ele>
        <time>2022-08-15T11:44:02+02:00</time>
      </trkpt>
      <trkpt lat="49.11361" lon="1.40425">
        <ele>124</ele>
        <time>2022-08-15T11:44:17+02:00</time>
      </trkpt>
      <trkpt lat="49.11364" lon="1.40409">
        <ele>124</ele>
        <time>2022-08-15T11:44:31+02:00</time>
      </trkpt>
      <trkpt lat="49.11368" lon="1.40391">
        <ele>123</ele>
        <time>2022-08-15T11:44:43+02:00</time>
      </trkpt>
      <trkpt lat="49.11381" lon="1.40367">
        <ele>123</ele>
        <time>2022-08-15T11:45:02+02:00</time>
      </trkpt>
      <trkpt lat="49.11387" lon="1.40356">
        <ele>122</ele>
        <time>2022-08-15T11:45:17+02:00</time>
      </trkpt>
      <trkpt lat="49.11399" lon="1.40337">
        <ele>122</ele>
        <time>2022-08-15T11:45:34+02:00</time>
      </trkpt>
      <trkpt lat="49.11412" lon="1.40317">
        <ele>121</ele>
        <time>2022-08-15T11:45:51+02:00</time>
      </trkpt>
      <trkpt lat="49.11424" lon="1.40297">
        <ele>120</ele>
        <time>2022-08-15T11:46:08+02:00</time>
      </trkpt>
      <trkpt lat="49.11429" lon="1.40291">
        <ele>120</ele>
        <time>2022-08-15T11:46:20+02:00</time>
      </trkpt>
      <trkpt lat="49.11437" lon="1.40279">
        <ele>120</ele>
        <time>2022-08-15T11:46:31+02:00</time>
      </trkpt>
      <trkpt lat="49.11449" lon="1.40258">
        <ele>120</ele>
        <time>2022-08-15T11:46:48+02:00</time>
      </trkpt>
      <trkpt lat="49.11455" lon="1.40253">
        <ele>120</ele>
        <time>2022-08-15T11:47:02+02:00</time>
      </trkpt>
      <trkpt lat="49.11455" lon="1.4025">
        <ele>120</ele>
        <time>2022-08-15T11:47:16+02:00</time>
      </trkpt>
      <trkpt lat="49.11454" lon="1.40246">
        <ele>120</ele>
        <time>2022-08-15T11:47:38+02:00</time>
      </trkpt>
      <trkpt lat="49.11458" lon="1.40236">
        <ele>120</ele>
        <time>2022-08-15T11:47:50+02:00</time>
      </trkpt>
      <trkpt lat="49.1146" lon="1.40222">
        <ele>119</ele>
        <time>2022-08-15T11:47:59+02:00</time>
      </trkpt>
      <trkpt lat="49.11462" lon="1.40209">
        <ele>118</ele>
        <time>2022-08-15T11:48:08+02:00</time>
      </trkpt>
      <trkpt lat="49.11463" lon="1.40206">
        <ele>118</ele>
        <time>2022-08-15T11:48:10+02:00</time>
      </trkpt>
      <trkpt lat="49.11463" lon="1.40203">
        <ele>118</ele>
        <time>2022-08-15T11:48:12+02:00</time>
      </trkpt>
      <trkpt lat="49.11467" lon="1.40175">
        <ele>117</ele>
        <time>2022-08-15T11:48:29+02:00</time>
      </trkpt>
      <trkpt lat="49.11468" lon="1.4015">
        <ele>115</ele>
        <time>2022-08-15T11:48:44+02:00</time>
      </trkpt>
      <trkpt lat="49.11469" lon="1.40148">
        <ele>115</ele>
        <time>2022-08-15T11:48:46+02:00</time>
      </trkpt>
      <trkpt lat="49.1147" lon="1.40138">
        <ele>115</ele>
        <time>2022-08-15T11:48:53+02:00</time>
      </trkpt>
      <trkpt lat="49.11474" lon="1.4012">
        <ele>114</ele>
        <time>2022-08-15T11:49:05+02:00</time>
      </trkpt>
      <trkpt lat="49.1148" lon="1.40098">
        <ele>112</ele>
        <time>2022-08-15T11:49:21+02:00</time>
      </trkpt>
      <trkpt lat="49.11488" lon="1.40083">
        <ele>111</ele>
        <time>2022-08-15T11:49:36+02:00</time>
      </trkpt>
      <trkpt lat="49.11497" lon="1.40065">
        <ele>109</ele>
        <time>2022-08-15T11:49:52+02:00</time>
      </trkpt>
      <trkpt lat="49.11505" lon="1.40056">
        <ele>108</ele>
        <time>2022-08-15T11:50:05+02:00</time>
      </trkpt>
      <trkpt lat="49.1151" lon="1.40043">
        <ele>107</ele>
        <time>2022-08-15T11:50:21+02:00</time>
      </trkpt>
      <trkpt lat="49.11515" lon="1.40031">
        <ele>105</ele>
        <time>2022-08-15T11:50:36+02:00</time>
      </trkpt>
      <trkpt lat="49.1152" lon="1.40023">
        <ele>104</ele>
        <time>2022-08-15T11:50:51+02:00</time>
      </trkpt>
      <trkpt lat="49.11524" lon="1.4002">
        <ele>103</ele>
        <time>2022-08-15T11:51:09+02:00</time>
      </trkpt>
      <trkpt lat="49.11529" lon="1.40017">
        <ele>103</ele>
        <time>2022-08-15T12:24:47+02:00</time>
      </trkpt>
      <trkpt lat="49.11531" lon="1.40011">
        <ele>102</ele>
        <time>2022-08-15T12:24:58+02:00</time>
      </trkpt>
      <trkpt lat="49.11537" lon="1.40004">
        <ele>101</ele>
        <time>2022-08-15T12:25:10+02:00</time>
      </trkpt>
      <trkpt lat="49.11546" lon="1.39987">
        <ele>99</ele>
        <time>2022-08-15T12:25:28+02:00</time>
      </trkpt>
      <trkpt lat="49.11546" lon="1.39986">
        <ele>98</ele>
        <time>2022-08-15T12:25:29+02:00</time>
      </trkpt>
      <trkpt lat="49.1155" lon="1.39981">
        <ele>98</ele>
        <time>2022-08-15T12:25:35+02:00</time>
      </trkpt>
      <trkpt lat="49.11557" lon="1.39969">
        <ele>96</ele>
        <time>2022-08-15T12:25:47+02:00</time>
      </trkpt>
      <trkpt lat="49.11559" lon="1.39966">
        <ele>96</ele>
        <time>2022-08-15T12:25:50+02:00</time>
      </trkpt>
      <trkpt lat="49.11568" lon="1.39951">
        <ele>94</ele>
        <time>2022-08-15T12:26:04+02:00</time>
      </trkpt>
      <trkpt lat="49.11579" lon="1.39934">
        <ele>91</ele>
        <time>2022-08-15T12:26:20+02:00</time>
      </trkpt>
      <trkpt lat="49.11584" lon="1.39927">
        <ele>90</ele>
        <time>2022-08-15T12:26:32+02:00</time>
      </trkpt>
      <trkpt lat="49.11594" lon="1.39912">
        <ele>88</ele>
        <time>2022-08-15T12:26:47+02:00</time>
      </trkpt>
      <trkpt lat="49.11605" lon="1.399">
        <ele>86</ele>
        <time>2022-08-15T12:26:59+02:00</time>
      </trkpt>
      <trkpt lat="49.11605" lon="1.399">
        <ele>86</ele>
        <time>2022-08-15T12:27:00+02:00</time>
      </trkpt>
      <trkpt lat="49.11612" lon="1.39898">
        <ele>85</ele>
        <time>2022-08-15T12:27:11+02:00</time>
      </trkpt>
      <trkpt lat="49.11624" lon="1.39919">
        <ele>86</ele>
        <time>2022-08-15T12:27:28+02:00</time>
      </trkpt>
      <trkpt lat="49.11631" lon="1.39932">
        <ele>87</ele>
        <time>2022-08-15T12:27:42+02:00</time>
      </trkpt>
      <trkpt lat="49.11641" lon="1.39947">
        <ele>88</ele>
        <time>2022-08-15T12:27:57+02:00</time>
      </trkpt>
      <trkpt lat="49.11651" lon="1.3996">
        <ele>89</ele>
        <time>2022-08-15T12:28:13+02:00</time>
      </trkpt>
      <trkpt lat="49.11655" lon="1.39967">
        <ele>89</ele>
        <time>2022-08-15T12:28:29+02:00</time>
      </trkpt>
      <trkpt lat="49.11662" lon="1.39981">
        <ele>91</ele>
        <time>2022-08-15T12:28:43+02:00</time>
      </trkpt>
      <trkpt lat="49.11671" lon="1.39998">
        <ele>92</ele>
        <time>2022-08-15T12:28:58+02:00</time>
      </trkpt>
      <trkpt lat="49.11679" lon="1.40009">
        <ele>92</ele>
        <time>2022-08-15T12:29:13+02:00</time>
      </trkpt>
      <trkpt lat="49.11684" lon="1.40019">
        <ele>92</ele>
        <time>2022-08-15T12:29:27+02:00</time>
      </trkpt>
      <trkpt lat="49.11687" lon="1.40022">
        <ele>92</ele>
        <time>2022-08-15T12:29:32+02:00</time>
      </trkpt>
      <trkpt lat="49.11693" lon="1.40041">
        <ele>93</ele>
        <time>2022-08-15T12:29:47+02:00</time>
      </trkpt>
      <trkpt lat="49.11702" lon="1.4006">
        <ele>93</ele>
        <time>2022-08-15T12:30:02+02:00</time>
      </trkpt>
      <trkpt lat="49.11709" lon="1.40074">
        <ele>94</ele>
        <time>2022-08-15T12:30:13+02:00</time>
      </trkpt>
      <trkpt lat="49.11718" lon="1.40094">
        <ele>94</ele>
        <time>2022-08-15T12:30:28+02:00</time>
      </trkpt>
      <trkpt lat="49.11729" lon="1.40109">
        <ele>94</ele>
        <time>2022-08-15T12:30:44+02:00</time>
      </trkpt>
      <trkpt lat="49.11737" lon="1.40112">
        <ele>94</ele>
        <time>2022-08-15T12:30:57+02:00</time>
      </trkpt>
      <trkpt lat="49.1175" lon="1.40113">
        <ele>92</ele>
        <time>2022-08-15T12:31:09+02:00</time>
      </trkpt>
      <trkpt lat="49.11765" lon="1.40113">
        <ele>93</ele>
        <time>2022-08-15T12:31:22+02:00</time>
      </trkpt>
      <trkpt lat="49.11776" lon="1.40112">
        <ele>93</ele>
        <time>2022-08-15T12:31:39+02:00</time>
      </trkpt>
      <trkpt lat="49.11779" lon="1.40111">
        <ele>93</ele>
        <time>2022-08-15T12:31:46+02:00</time>
      </trkpt>
      <trkpt lat="49.11789" lon="1.40107">
        <ele>93</ele>
        <time>2022-08-15T12:32:04+02:00</time>
      </trkpt>
      <trkpt lat="49.11799" lon="1.40097">
        <ele>92</ele>
        <time>2022-08-15T12:32:18+02:00</time>
      </trkpt>
      <trkpt lat="49.11811" lon="1.40084">
        <ele>92</ele>
        <time>2022-08-15T12:32:33+02:00</time>
      </trkpt>
      <trkpt lat="49.11824" lon="1.4007">
        <ele>92</ele>
        <time>2022-08-15T12:32:49+02:00</time>
      </trkpt>
      <trkpt lat="49.11824" lon="1.4005">
        <ele>91</ele>
        <time>2022-08-15T12:33:03+02:00</time>
      </trkpt>
      <trkpt lat="49.11823" lon="1.40048">
        <ele>91</ele>
        <time>2022-08-15T12:33:04+02:00</time>
      </trkpt>
      <trkpt lat="49.11821" lon="1.40027">
        <ele>90</ele>
        <time>2022-08-15T12:33:17+02:00</time>
      </trkpt>
      <trkpt lat="49.1182" lon="1.40011">
        <ele>89</ele>
        <time>2022-08-15T12:33:31+02:00</time>
      </trkpt>
      <trkpt lat="49.11818" lon="1.39987">
        <ele>88</ele>
        <time>2022-08-15T12:33:48+02:00</time>
      </trkpt>
      <trkpt lat="49.11816" lon="1.39961">
        <ele>87</ele>
        <time>2022-08-15T12:34:04+02:00</time>
      </trkpt>
      <trkpt lat="49.11815" lon="1.39954">
        <ele>87</ele>
        <time>2022-08-15T12:34:19+02:00</time>
      </trkpt>
      <trkpt lat="49.11812" lon="1.39936">
        <ele>86</ele>
        <time>2022-08-15T12:34:35+02:00</time>
      </trkpt>
      <trkpt lat="49.1181" lon="1.39907">
        <ele>84</ele>
        <time>2022-08-15T12:34:54+02:00</time>
      </trkpt>
      <trkpt lat="49.1181" lon="1.39906">
        <ele>84</ele>
        <time>2022-08-15T12:34:55+02:00</time>
      </trkpt>
      <trkpt lat="49.11807" lon="1.39879">
        <ele>82</ele>
        <time>2022-08-15T12:35:11+02:00</time>
      </trkpt>
      <trkpt lat="49.11805" lon="1.39857">
        <ele>81</ele>
        <time>2022-08-15T12:35:27+02:00</time>
      </trkpt>
      <trkpt lat="49.11807" lon="1.39841">
        <ele>80</ele>
        <time>2022-08-15T12:35:38+02:00</time>
      </trkpt>
      <trkpt lat="49.11811" lon="1.39836">
        <ele>80</ele>
        <time>2022-08-15T12:35:44+02:00</time>
      </trkpt>
      <trkpt lat="49.11821" lon="1.39836">
        <ele>82</ele>
        <time>2022-08-15T12:35:57+02:00</time>
      </trkpt>
      <trkpt lat="49.11827" lon="1.3984">
        <ele>83</ele>
        <time>2022-08-15T12:36:06+02:00</time>
      </trkpt>
      <trkpt lat="49.11828" lon="1.39829">
        <ele>82</ele>
        <time>2022-08-15T12:36:20+02:00</time>
      </trkpt>
      <trkpt lat="49.11822" lon="1.39826">
        <ele>81</ele>
        <time>2022-08-15T12:36:35+02:00</time>
      </trkpt>
      <trkpt lat="49.11816" lon="1.39821">
        <ele>80</ele>
        <time>2022-08-15T12:36:49+02:00</time>
      </trkpt>
      <trkpt lat="49.1181" lon="1.39818">
        <ele>79</ele>
        <time>2022-08-15T12:36:55+02:00</time>
      </trkpt>
      <trkpt lat="49.11807" lon="1.39816">
        <ele>78</ele>
        <time>2022-08-15T12:36:58+02:00</time>
      </trkpt>
      <trkpt lat="49.11801" lon="1.39814">
        <ele>77</ele>
        <time>2022-08-15T12:37:04+02:00</time>
      </trkpt>
      <trkpt lat="49.11784" lon="1.39819">
        <ele>76</ele>
        <time>2022-08-15T12:37:21+02:00</time>
      </trkpt>
      <trkpt lat="49.1178" lon="1.39822">
        <ele>76</ele>
        <time>2022-08-15T12:37:36+02:00</time>
      </trkpt>
      <trkpt lat="49.11779" lon="1.39826">
        <ele>76</ele>
        <time>2022-08-15T12:37:39+02:00</time>
      </trkpt>
      <trkpt lat="49.11775" lon="1.39832">
        <ele>76</ele>
        <time>2022-08-15T12:37:44+02:00</time>
      </trkpt>
      <trkpt lat="49.11764" lon="1.39848">
        <ele>75</ele>
        <time>2022-08-15T12:38:01+02:00</time>
      </trkpt>
      <trkpt lat="49.11755" lon="1.39865">
        <ele>75</ele>
        <time>2022-08-15T12:38:15+02:00</time>
      </trkpt>
      <trkpt lat="49.11743" lon="1.39882">
        <ele>75</ele>
        <time>2022-08-15T12:38:33+02:00</time>
      </trkpt>
      <trkpt lat="49.11741" lon="1.39881">
        <ele>75</ele>
        <time>2022-08-15T12:38:35+02:00</time>
      </trkpt>
      <trkpt lat="49.11734" lon="1.39863">
        <ele>75</ele>
        <time>2022-08-15T12:38:52+02:00</time>
      </trkpt>
      <trkpt lat="49.11731" lon="1.39835">
        <ele>73</ele>
        <time>2022-08-15T12:39:09+02:00</time>
      </trkpt>
      <trkpt lat="49.11727" lon="1.39808">
        <ele>71</ele>
        <time>2022-08-15T12:39:26+02:00</time>
      </trkpt>
      <trkpt lat="49.11725" lon="1.39784">
        <ele>70</ele>
        <time>2022-08-15T12:39:42+02:00</time>
      </trkpt>
      <trkpt lat="49.11723" lon="1.39765">
        <ele>68</ele>
        <time>2022-08-15T12:39:55+02:00</time>
      </trkpt>
      <trkpt lat="49.1172" lon="1.39739">
        <ele>66</ele>
        <time>2022-08-15T12:40:11+02:00</time>
      </trkpt>
      <trkpt lat="49.11717" lon="1.39719">
        <ele>66</ele>
        <time>2022-08-15T12:40:24+02:00</time>
      </trkpt>
      <trkpt lat="49.11724" lon="1.39696">
        <ele>64</ele>
        <time>2022-08-15T12:40:41+02:00</time>
      </trkpt>
      <trkpt lat="49.11733" lon="1.39673">
        <ele>63</ele>
        <time>2022-08-15T12:40:59+02:00</time>
      </trkpt>
      <trkpt lat="49.11736" lon="1.39665">
        <ele>62</ele>
        <time>2022-08-15T12:41:07+02:00</time>
      </trkpt>
      <trkpt lat="49.11742" lon="1.39651">
        <ele>61</ele>
        <time>2022-08-15T12:41:17+02:00</time>
      </trkpt>
      <trkpt lat="49.11741" lon="1.39647">
        <ele>60</ele>
        <time>2022-08-15T12:41:19+02:00</time>
      </trkpt>
      <trkpt lat="49.11744" lon="1.39636">
        <ele>59</ele>
        <time>2022-08-15T12:41:25+02:00</time>
      </trkpt>
      <trkpt lat="49.11747" lon="1.39631">
        <ele>59</ele>
        <time>2022-08-15T12:41:30+02:00</time>
      </trkpt>
      <trkpt lat="49.11753" lon="1.39625">
        <ele>58</ele>
        <time>2022-08-15T12:41:37+02:00</time>
      </trkpt>
      <trkpt lat="49.11762" lon="1.39611">
        <ele>56</ele>
        <time>2022-08-15T12:41:50+02:00</time>
      </trkpt>
      <trkpt lat="49.1177" lon="1.39604">
        <ele>56</ele>
        <time>2022-08-15T12:42:05+02:00</time>
      </trkpt>
      <trkpt lat="49.11773" lon="1.39604">
        <ele>56</ele>
        <time>2022-08-15T12:42:14+02:00</time>
      </trkpt>
      <trkpt lat="49.11791" lon="1.39602">
        <ele>55</ele>
        <time>2022-08-15T12:42:31+02:00</time>
      </trkpt>
      <trkpt lat="49.11808" lon="1.39595">
        <ele>54</ele>
        <time>2022-08-15T12:42:48+02:00</time>
      </trkpt>
      <trkpt lat="49.11817" lon="1.39591">
        <ele>53</ele>
        <time>2022-08-15T12:42:59+02:00</time>
      </trkpt>
      <trkpt lat="49.1182" lon="1.39591">
        <ele>53</ele>
        <time>2022-08-15T12:43:01+02:00</time>
      </trkpt>
      <trkpt lat="49.11825" lon="1.39585">
        <ele>52</ele>
        <time>2022-08-15T12:43:42+02:00</time>
      </trkpt>
      <trkpt lat="49.11828" lon="1.39577">
        <ele>52</ele>
        <time>2022-08-15T12:43:55+02:00</time>
      </trkpt>
      <trkpt lat="49.11833" lon="1.39569">
        <ele>52</ele>
        <time>2022-08-15T12:44:07+02:00</time>
      </trkpt>
      <trkpt lat="49.11839" lon="1.39559">
        <ele>52</ele>
        <time>2022-08-15T12:44:19+02:00</time>
      </trkpt>
      <trkpt lat="49.11846" lon="1.39542">
        <ele>52</ele>
        <time>2022-08-15T12:44:33+02:00</time>
      </trkpt>
      <trkpt lat="49.11851" lon="1.39521">
        <ele>52</ele>
        <time>2022-08-15T12:44:47+02:00</time>
      </trkpt>
      <trkpt lat="49.11861" lon="1.39498">
        <ele>52</ele>
        <time>2022-08-15T12:45:01+02:00</time>
      </trkpt>
      <trkpt lat="49.11869" lon="1.39487">
        <ele>53</ele>
        <time>2022-08-15T12:45:16+02:00</time>
      </trkpt>
      <trkpt lat="49.11881" lon="1.39493">
        <ele>53</ele>
        <time>2022-08-15T12:45:32+02:00</time>
      </trkpt>
      <trkpt lat="49.11892" lon="1.39492">
        <ele>54</ele>
        <time>2022-08-15T12:45:46+02:00</time>
      </trkpt>
      <trkpt lat="49.11901" lon="1.39491">
        <ele>54</ele>
        <time>2022-08-15T12:45:58+02:00</time>
      </trkpt>
      <trkpt lat="49.11917" lon="1.39491">
        <ele>54</ele>
        <time>2022-08-15T12:46:14+02:00</time>
      </trkpt>
      <trkpt lat="49.11931" lon="1.39489">
        <ele>55</ele>
        <time>2022-08-15T12:46:30+02:00</time>
      </trkpt>
      <trkpt lat="49.11932" lon="1.39488">
        <ele>55</ele>
        <time>2022-08-15T12:46:32+02:00</time>
      </trkpt>
      <trkpt lat="49.11941" lon="1.39479">
        <ele>56</ele>
        <time>2022-08-15T12:46:46+02:00</time>
      </trkpt>
      <trkpt lat="49.11947" lon="1.39465">
        <ele>57</ele>
        <time>2022-08-15T12:47:03+02:00</time>
      </trkpt>
      <trkpt lat="49.11953" lon="1.39444">
        <ele>58</ele>
        <time>2022-08-15T12:47:20+02:00</time>
      </trkpt>
      <trkpt lat="49.11955" lon="1.39439">
        <ele>58</ele>
        <time>2022-08-15T12:47:24+02:00</time>
      </trkpt>
      <trkpt lat="49.11956" lon="1.39434">
        <ele>59</ele>
        <time>2022-08-15T12:47:28+02:00</time>
      </trkpt>
      <trkpt lat="49.11957" lon="1.39431">
        <ele>59</ele>
        <time>2022-08-15T12:47:30+02:00</time>
      </trkpt>
      <trkpt lat="49.11963" lon="1.39411">
        <ele>60</ele>
        <time>2022-08-15T12:47:45+02:00</time>
      </trkpt>
      <trkpt lat="49.1197" lon="1.39396">
        <ele>60</ele>
        <time>2022-08-15T12:48:00+02:00</time>
      </trkpt>
      <trkpt lat="49.11975" lon="1.39387">
        <ele>61</ele>
        <time>2022-08-15T12:48:10+02:00</time>
      </trkpt>
      <trkpt lat="49.1198" lon="1.39377">
        <ele>61</ele>
        <time>2022-08-15T12:48:20+02:00</time>
      </trkpt>
      <trkpt lat="49.11988" lon="1.39361">
        <ele>61</ele>
        <time>2022-08-15T12:48:34+02:00</time>
      </trkpt>
      <trkpt lat="49.11997" lon="1.39346">
        <ele>62</ele>
        <time>2022-08-15T12:48:48+02:00</time>
      </trkpt>
      <trkpt lat="49.12005" lon="1.3933">
        <ele>62</ele>
        <time>2022-08-15T12:49:03+02:00</time>
      </trkpt>
      <trkpt lat="49.12018" lon="1.39314">
        <ele>62</ele>
        <time>2022-08-15T12:49:19+02:00</time>
      </trkpt>
      <trkpt lat="49.12025" lon="1.39306">
        <ele>62</ele>
        <time>2022-08-15T12:49:32+02:00</time>
      </trkpt>
      <trkpt lat="49.12033" lon="1.39295">
        <ele>63</ele>
        <time>2022-08-15T12:49:46+02:00</time>
      </trkpt>
      <trkpt lat="49.12042" lon="1.39284">
        <ele>63</ele>
        <time>2022-08-15T12:50:00+02:00</time>
      </trkpt>
      <trkpt lat="49.12051" lon="1.3927">
        <ele>64</ele>
        <time>2022-08-15T12:50:17+02:00</time>
      </trkpt>
      <trkpt lat="49.1206" lon="1.39259">
        <ele>64</ele>
        <time>2022-08-15T12:50:34+02:00</time>
      </trkpt>
      <trkpt lat="49.12071" lon="1.39247">
        <ele>64</ele>
        <time>2022-08-15T12:50:50+02:00</time>
      </trkpt>
      <trkpt lat="49.12082" lon="1.39237">
        <ele>65</ele>
        <time>2022-08-15T12:51:05+02:00</time>
      </trkpt>
      <trkpt lat="49.12089" lon="1.3923">
        <ele>65</ele>
        <time>2022-08-15T12:51:17+02:00</time>
      </trkpt>
      <trkpt lat="49.12097" lon="1.39226">
        <ele>66</ele>
        <time>2022-08-15T12:51:29+02:00</time>
      </trkpt>
      <trkpt lat="49.12107" lon="1.39219">
        <ele>67</ele>
        <time>2022-08-15T12:51:42+02:00</time>
      </trkpt>
      <trkpt lat="49.12112" lon="1.39212">
        <ele>68</ele>
        <time>2022-08-15T12:51:57+02:00</time>
      </trkpt>
      <trkpt lat="49.12118" lon="1.39207">
        <ele>69</ele>
        <time>2022-08-15T12:52:17+02:00</time>
      </trkpt>
      <trkpt lat="49.12124" lon="1.392">
        <ele>70</ele>
        <time>2022-08-15T12:52:31+02:00</time>
      </trkpt>
      <trkpt lat="49.12131" lon="1.39193">
        <ele>71</ele>
        <time>2022-08-15T12:52:46+02:00</time>
      </trkpt>
      <trkpt lat="49.1214" lon="1.39186">
        <ele>72</ele>
        <time>2022-08-15T12:53:04+02:00</time>
      </trkpt>
      <trkpt lat="49.12148" lon="1.39179">
        <ele>73</ele>
        <time>2022-08-15T12:53:18+02:00</time>
      </trkpt>
      <trkpt lat="49.12156" lon="1.39173">
        <ele>75</ele>
        <time>2022-08-15T12:53:33+02:00</time>
      </trkpt>
      <trkpt lat="49.12164" lon="1.39167">
        <ele>76</ele>
        <time>2022-08-15T12:53:45+02:00</time>
      </trkpt>
      <trkpt lat="49.12175" lon="1.39159">
        <ele>77</ele>
        <time>2022-08-15T12:54:01+02:00</time>
      </trkpt>
      <trkpt lat="49.12184" lon="1.39151">
        <ele>78</ele>
        <time>2022-08-15T12:54:17+02:00</time>
      </trkpt>
      <trkpt lat="49.12184" lon="1.3915">
        <ele>78</ele>
        <time>2022-08-15T12:54:38+02:00</time>
      </trkpt>
      <trkpt lat="49.12185" lon="1.39149">
        <ele>78</ele>
        <time>2022-08-15T12:54:45+02:00</time>
      </trkpt>
      <trkpt lat="49.12187" lon="1.39148">
        <ele>79</ele>
        <time>2022-08-15T12:54:48+02:00</time>
      </trkpt>
      <trkpt lat="49.12197" lon="1.39141">
        <ele>80</ele>
        <time>2022-08-15T12:55:02+02:00</time>
      </trkpt>
      <trkpt lat="49.12209" lon="1.39132">
        <ele>81</ele>
        <time>2022-08-15T12:55:19+02:00</time>
      </trkpt>
      <trkpt lat="49.1222" lon="1.39121">
        <ele>83</ele>
        <time>2022-08-15T12:55:35+02:00</time>
      </trkpt>
      <trkpt lat="49.1223" lon="1.39114">
        <ele>84</ele>
        <time>2022-08-15T12:55:49+02:00</time>
      </trkpt>
      <trkpt lat="49.12238" lon="1.39111">
        <ele>85</ele>
        <time>2022-08-15T12:55:59+02:00</time>
      </trkpt>
      <trkpt lat="49.12249" lon="1.39108">
        <ele>86</ele>
        <time>2022-08-15T12:56:13+02:00</time>
      </trkpt>
      <trkpt lat="49.12251" lon="1.39097">
        <ele>87</ele>
        <time>2022-08-15T12:56:24+02:00</time>
      </trkpt>
      <trkpt lat="49.12255" lon="1.39075">
        <ele>88</ele>
        <time>2022-08-15T12:56:40+02:00</time>
      </trkpt>
      <trkpt lat="49.12259" lon="1.39059">
        <ele>89</ele>
        <time>2022-08-15T12:56:54+02:00</time>
      </trkpt>
      <trkpt lat="49.12259" lon="1.39053">
        <ele>89</ele>
        <time>2022-08-15T12:57:31+02:00</time>
      </trkpt>
      <trkpt lat="49.1226" lon="1.39046">
        <ele>89</ele>
        <time>2022-08-15T12:58:44+02:00</time>
      </trkpt>
      <trkpt lat="49.1226" lon="1.39039">
        <ele>89</ele>
        <time>2022-08-15T12:59:17+02:00</time>
      </trkpt>
      <trkpt lat="49.12267" lon="1.39026">
        <ele>89</ele>
        <time>2022-08-15T12:59:32+02:00</time>
      </trkpt>
      <trkpt lat="49.12269" lon="1.3902">
        <ele>89</ele>
        <time>2022-08-15T12:59:48+02:00</time>
      </trkpt>
      <trkpt lat="49.12274" lon="1.39012">
        <ele>90</ele>
        <time>2022-08-15T13:00:01+02:00</time>
      </trkpt>
      <trkpt lat="49.12278" lon="1.38992">
        <ele>90</ele>
        <time>2022-08-15T13:00:15+02:00</time>
      </trkpt>
      <trkpt lat="49.12283" lon="1.38981">
        <ele>91</ele>
        <time>2022-08-15T13:00:28+02:00</time>
      </trkpt>
      <trkpt lat="49.12294" lon="1.38972">
        <ele>91</ele>
        <time>2022-08-15T13:00:44+02:00</time>
      </trkpt>
      <trkpt lat="49.12296" lon="1.38974">
        <ele>91</ele>
        <time>2022-08-15T13:00:48+02:00</time>
      </trkpt>
      <trkpt lat="49.12303" lon="1.38979">
        <ele>91</ele>
        <time>2022-08-15T13:00:56+02:00</time>
      </trkpt>
      <trkpt lat="49.1232" lon="1.38982">
        <ele>91</ele>
        <time>2022-08-15T13:01:13+02:00</time>
      </trkpt>
      <trkpt lat="49.12322" lon="1.38982">
        <ele>91</ele>
        <time>2022-08-15T13:01:15+02:00</time>
      </trkpt>
      <trkpt lat="49.12326" lon="1.38979">
        <ele>91</ele>
        <time>2022-08-15T13:01:19+02:00</time>
      </trkpt>
      <trkpt lat="49.12344" lon="1.38978">
        <ele>91</ele>
        <time>2022-08-15T13:01:36+02:00</time>
      </trkpt>
      <trkpt lat="49.12349" lon="1.38978">
        <ele>92</ele>
        <time>2022-08-15T13:01:50+02:00</time>
      </trkpt>
      <trkpt lat="49.12349" lon="1.38986">
        <ele>91</ele>
        <time>2022-08-15T13:02:03+02:00</time>
      </trkpt>
      <trkpt lat="49.12348" lon="1.38997">
        <ele>91</ele>
        <time>2022-08-15T13:02:21+02:00</time>
      </trkpt>
      <trkpt lat="49.12351" lon="1.38991">
        <ele>91</ele>
        <time>2022-08-15T13:02:31+02:00</time>
      </trkpt>
      <trkpt lat="49.12351" lon="1.38989">
        <ele>91</ele>
        <time>2022-08-15T13:02:34+02:00</time>
      </trkpt>
      <trkpt lat="49.12351" lon="1.38979">
        <ele>92</ele>
        <time>2022-08-15T13:02:47+02:00</time>
      </trkpt>
      <trkpt lat="49.12354" lon="1.38977">
        <ele>92</ele>
        <time>2022-08-15T13:02:59+02:00</time>
      </trkpt>
      <trkpt lat="49.12361" lon="1.38975">
        <ele>92</ele>
        <time>2022-08-15T13:03:26+02:00</time>
      </trkpt>
      <trkpt lat="49.12376" lon="1.38977">
        <ele>92</ele>
        <time>2022-08-15T13:03:40+02:00</time>
      </trkpt>
      <trkpt lat="49.12386" lon="1.38976">
        <ele>93</ele>
        <time>2022-08-15T13:03:51+02:00</time>
      </trkpt>
      <trkpt lat="49.12403" lon="1.38971">
        <ele>94</ele>
        <time>2022-08-15T13:04:09+02:00</time>
      </trkpt>
      <trkpt lat="49.12411" lon="1.38969">
        <ele>94</ele>
        <time>2022-08-15T13:04:18+02:00</time>
      </trkpt>
      <trkpt lat="49.12426" lon="1.38968">
        <ele>95</ele>
        <time>2022-08-15T13:04:34+02:00</time>
      </trkpt>
      <trkpt lat="49.12432" lon="1.38962">
        <ele>95</ele>
        <time>2022-08-15T13:04:49+02:00</time>
      </trkpt>
      <trkpt lat="49.12432" lon="1.38961">
        <ele>95</ele>
        <time>2022-08-15T13:05:12+02:00</time>
      </trkpt>
      <trkpt lat="49.1244" lon="1.38966">
        <ele>96</ele>
        <time>2022-08-15T13:05:27+02:00</time>
      </trkpt>
      <trkpt lat="49.12446" lon="1.38969">
        <ele>96</ele>
        <time>2022-08-15T13:05:33+02:00</time>
      </trkpt>
      <trkpt lat="49.12463" lon="1.38977">
        <ele>97</ele>
        <time>2022-08-15T13:05:50+02:00</time>
      </trkpt>
      <trkpt lat="49.12475" lon="1.38986">
        <ele>98</ele>
        <time>2022-08-15T13:06:05+02:00</time>
      </trkpt>
      <trkpt lat="49.12478" lon="1.3899">
        <ele>98</ele>
        <time>2022-08-15T13:06:29+02:00</time>
      </trkpt>
      <trkpt lat="49.12482" lon="1.38988">
        <ele>98</ele>
        <time>2022-08-15T13:06:38+02:00</time>
      </trkpt>
      <trkpt lat="49.12495" lon="1.38982">
        <ele>99</ele>
        <time>2022-08-15T13:06:53+02:00</time>
      </trkpt>
      <trkpt lat="49.12512" lon="1.38978">
        <ele>101</ele>
        <time>2022-08-15T13:07:10+02:00</time>
      </trkpt>
      <trkpt lat="49.12527" lon="1.38977">
        <ele>104</ele>
        <time>2022-08-15T13:07:26+02:00</time>
      </trkpt>
      <trkpt lat="49.12541" lon="1.38983">
        <ele>105</ele>
        <time>2022-08-15T13:07:42+02:00</time>
      </trkpt>
      <trkpt lat="49.12547" lon="1.3899">
        <ele>106</ele>
        <time>2022-08-15T13:07:55+02:00</time>
      </trkpt>
      <trkpt lat="49.12555" lon="1.39">
        <ele>106</ele>
        <time>2022-08-15T13:08:15+02:00</time>
      </trkpt>
      <trkpt lat="49.12566" lon="1.39012">
        <ele>107</ele>
        <time>2022-08-15T13:08:30+02:00</time>
      </trkpt>
      <trkpt lat="49.12572" lon="1.39026">
        <ele>107</ele>
        <time>2022-08-15T13:08:43+02:00</time>
      </trkpt>
      <trkpt lat="49.12571" lon="1.39027">
        <ele>107</ele>
        <time>2022-08-15T13:08:59+02:00</time>
      </trkpt>
      <trkpt lat="49.12567" lon="1.39033">
        <ele>106</ele>
        <time>2022-08-15T13:09:09+02:00</time>
      </trkpt>
      <trkpt lat="49.12558" lon="1.39046">
        <ele>104</ele>
        <time>2022-08-15T13:09:25+02:00</time>
      </trkpt>
      <trkpt lat="49.12555" lon="1.39051">
        <ele>104</ele>
        <time>2022-08-15T13:09:37+02:00</time>
      </trkpt>
      <trkpt lat="49.12546" lon="1.39056">
        <ele>102</ele>
        <time>2022-08-15T13:09:53+02:00</time>
      </trkpt>
      <trkpt lat="49.12539" lon="1.39069">
        <ele>101</ele>
        <time>2022-08-15T13:10:07+02:00</time>
      </trkpt>
      <trkpt lat="49.1253" lon="1.39082">
        <ele>99</ele>
        <time>2022-08-15T13:10:21+02:00</time>
      </trkpt>
      <trkpt lat="49.12522" lon="1.39092">
        <ele>97</ele>
        <time>2022-08-15T13:10:37+02:00</time>
      </trkpt>
      <trkpt lat="49.12515" lon="1.39104">
        <ele>96</ele>
        <time>2022-08-15T13:10:52+02:00</time>
      </trkpt>
      <trkpt lat="49.12514" lon="1.39105">
        <ele>96</ele>
        <time>2022-08-15T13:10:54+02:00</time>
      </trkpt>
      <trkpt lat="49.12509" lon="1.39114">
        <ele>95</ele>
        <time>2022-08-15T13:11:01+02:00</time>
      </trkpt>
      <trkpt lat="49.12508" lon="1.39116">
        <ele>94</ele>
        <time>2022-08-15T13:11:02+02:00</time>
      </trkpt>
      <trkpt lat="49.12498" lon="1.39134">
        <ele>92</ele>
        <time>2022-08-15T13:11:18+02:00</time>
      </trkpt>
      <trkpt lat="49.12493" lon="1.39144">
        <ele>92</ele>
        <time>2022-08-15T13:11:33+02:00</time>
      </trkpt>
      <trkpt lat="49.12491" lon="1.39147">
        <ele>91</ele>
        <time>2022-08-15T13:11:46+02:00</time>
      </trkpt>
      <trkpt lat="49.12494" lon="1.39152">
        <ele>91</ele>
        <time>2022-08-15T13:11:51+02:00</time>
      </trkpt>
      <trkpt lat="49.12499" lon="1.39163">
        <ele>91</ele>
        <time>2022-08-15T13:12:05+02:00</time>
      </trkpt>
      <trkpt lat="49.12501" lon="1.39167">
        <ele>91</ele>
        <time>2022-08-15T13:12:08+02:00</time>
      </trkpt>
      <trkpt lat="49.12502" lon="1.3917">
        <ele>91</ele>
        <time>2022-08-15T13:12:10+02:00</time>
      </trkpt>
      <trkpt lat="49.12504" lon="1.39172">
        <ele>91</ele>
        <time>2022-08-15T13:12:13+02:00</time>
      </trkpt>
      <trkpt lat="49.12505" lon="1.39175">
        <ele>91</ele>
        <time>2022-08-15T13:12:15+02:00</time>
      </trkpt>
      <trkpt lat="49.12512" lon="1.39188">
        <ele>92</ele>
        <time>2022-08-15T13:12:29+02:00</time>
      </trkpt>
      <trkpt lat="49.12512" lon="1.3919">
        <ele>92</ele>
        <time>2022-08-15T13:12:51+02:00</time>
      </trkpt>
      <trkpt lat="49.12518" lon="1.392">
        <ele>92</ele>
        <time>2022-08-15T13:12:59+02:00</time>
      </trkpt>
      <trkpt lat="49.12528" lon="1.39219">
        <ele>93</ele>
        <time>2022-08-15T13:13:14+02:00</time>
      </trkpt>
      <trkpt lat="49.12536" lon="1.39237">
        <ele>93</ele>
        <time>2022-08-15T13:13:28+02:00</time>
      </trkpt>
      <trkpt lat="49.12541" lon="1.3925">
        <ele>92</ele>
        <time>2022-08-15T13:13:40+02:00</time>
      </trkpt>
      <trkpt lat="49.12543" lon="1.39254">
        <ele>92</ele>
        <time>2022-08-15T13:13:43+02:00</time>
      </trkpt>
      <trkpt lat="49.12553" lon="1.39272">
        <ele>92</ele>
        <time>2022-08-15T13:14:01+02:00</time>
      </trkpt>
      <trkpt lat="49.12559" lon="1.39272">
        <ele>93</ele>
        <time>2022-08-15T13:14:15+02:00</time>
      </trkpt>
      <trkpt lat="49.12566" lon="1.39265">
        <ele>93</ele>
        <time>2022-08-15T13:14:28+02:00</time>
      </trkpt>
      <trkpt lat="49.12572" lon="1.39256">
        <ele>94</ele>
        <time>2022-08-15T13:14:36+02:00</time>
      </trkpt>
      <trkpt lat="49.12579" lon="1.39245">
        <ele>95</ele>
        <time>2022-08-15T13:14:49+02:00</time>
      </trkpt>
      <trkpt lat="49.12581" lon="1.39243">
        <ele>95</ele>
        <time>2022-08-15T13:14:55+02:00</time>
      </trkpt>
      <trkpt lat="49.12586" lon="1.39241">
        <ele>96</ele>
        <time>2022-08-15T13:15:03+02:00</time>
      </trkpt>
      <trkpt lat="49.12597" lon="1.39261">
        <ele>96</ele>
        <time>2022-08-15T13:15:19+02:00</time>
      </trkpt>
      <trkpt lat="49.12607" lon="1.3928">
        <ele>96</ele>
        <time>2022-08-15T13:15:36+02:00</time>
      </trkpt>
      <trkpt lat="49.1261" lon="1.39291">
        <ele>96</ele>
        <time>2022-08-15T13:15:51+02:00</time>
      </trkpt>
      <trkpt lat="49.12613" lon="1.39291">
        <ele>96</ele>
        <time>2022-08-15T13:16:13+02:00</time>
      </trkpt>
      <trkpt lat="49.12617" lon="1.39298">
        <ele>96</ele>
        <time>2022-08-15T13:16:26+02:00</time>
      </trkpt>
      <trkpt lat="49.12622" lon="1.39306">
        <ele>96</ele>
        <time>2022-08-15T13:16:36+02:00</time>
      </trkpt>
      <trkpt lat="49.12627" lon="1.39318">
        <ele>96</ele>
        <time>2022-08-15T13:16:46+02:00</time>
      </trkpt>
      <trkpt lat="49.12633" lon="1.39333">
        <ele>95</ele>
        <time>2022-08-15T13:16:59+02:00</time>
      </trkpt>
      <trkpt lat="49.12636" lon="1.39349">
        <ele>94</ele>
        <time>2022-08-15T13:17:13+02:00</time>
      </trkpt>
      <trkpt lat="49.12635" lon="1.3935">
        <ele>94</ele>
        <time>2022-08-15T13:17:14+02:00</time>
      </trkpt>
      <trkpt lat="49.12629" lon="1.39371">
        <ele>92</ele>
        <time>2022-08-15T13:17:30+02:00</time>
      </trkpt>
      <trkpt lat="49.12623" lon="1.39391">
        <ele>91</ele>
        <time>2022-08-15T13:17:49+02:00</time>
      </trkpt>
      <trkpt lat="49.12624" lon="1.39393">
        <ele>90</ele>
        <time>2022-08-15T13:18:06+02:00</time>
      </trkpt>
      <trkpt lat="49.12623" lon="1.39401">
        <ele>90</ele>
        <time>2022-08-15T13:18:24+02:00</time>
      </trkpt>
      <trkpt lat="49.12626" lon="1.39408">
        <ele>90</ele>
        <time>2022-08-15T13:20:06+02:00</time>
      </trkpt>
      <trkpt lat="49.12634" lon="1.39421">
        <ele>89</ele>
        <time>2022-08-15T13:21:12+02:00</time>
      </trkpt>
      <trkpt lat="49.12641" lon="1.39436">
        <ele>89</ele>
        <time>2022-08-15T13:21:28+02:00</time>
      </trkpt>
      <trkpt lat="49.12642" lon="1.39437">
        <ele>89</ele>
        <time>2022-08-15T13:21:29+02:00</time>
      </trkpt>
      <trkpt lat="49.12651" lon="1.39453">
        <ele>89</ele>
        <time>2022-08-15T13:21:44+02:00</time>
      </trkpt>
      <trkpt lat="49.1265" lon="1.39451">
        <ele>89</ele>
        <time>2022-08-15T13:21:48+02:00</time>
      </trkpt>
      <trkpt lat="49.1264" lon="1.39436">
        <ele>89</ele>
        <time>2022-08-15T13:22:01+02:00</time>
      </trkpt>
      <trkpt lat="49.12627" lon="1.39453">
        <ele>87</ele>
        <time>2022-08-15T13:22:16+02:00</time>
      </trkpt>
      <trkpt lat="49.12616" lon="1.39469">
        <ele>85</ele>
        <time>2022-08-15T13:22:33+02:00</time>
      </trkpt>
      <trkpt lat="49.12612" lon="1.39484">
        <ele>83</ele>
        <time>2022-08-15T13:22:44+02:00</time>
      </trkpt>
      <trkpt lat="49.12623" lon="1.395">
        <ele>83</ele>
        <time>2022-08-15T13:23:00+02:00</time>
      </trkpt>
      <trkpt lat="49.12631" lon="1.39507">
        <ele>84</ele>
        <time>2022-08-15T13:23:08+02:00</time>
      </trkpt>
      <trkpt lat="49.12646" lon="1.39524">
        <ele>84</ele>
        <time>2022-08-15T13:23:27+02:00</time>
      </trkpt>
      <trkpt lat="49.12655" lon="1.39535">
        <ele>85</ele>
        <time>2022-08-15T13:23:38+02:00</time>
      </trkpt>
      <trkpt lat="49.1266" lon="1.3954">
        <ele>86</ele>
        <time>2022-08-15T13:23:44+02:00</time>
      </trkpt>
      <trkpt lat="49.12663" lon="1.39544">
        <ele>86</ele>
        <time>2022-08-15T13:23:48+02:00</time>
      </trkpt>
      <trkpt lat="49.12665" lon="1.39548">
        <ele>86</ele>
        <time>2022-08-15T13:24:03+02:00</time>
      </trkpt>
      <trkpt lat="49.1268" lon="1.39563">
        <ele>87</ele>
        <time>2022-08-15T13:24:20+02:00</time>
      </trkpt>
      <trkpt lat="49.12693" lon="1.39577">
        <ele>88</ele>
        <time>2022-08-15T13:24:37+02:00</time>
      </trkpt>
      <trkpt lat="49.12696" lon="1.3958">
        <ele>88</ele>
        <time>2022-08-15T13:24:40+02:00</time>
      </trkpt>
      <trkpt lat="49.12706" lon="1.39589">
        <ele>89</ele>
        <time>2022-08-15T13:24:56+02:00</time>
      </trkpt>
      <trkpt lat="49.12716" lon="1.39601">
        <ele>90</ele>
        <time>2022-08-15T13:25:15+02:00</time>
      </trkpt>
      <trkpt lat="49.12718" lon="1.39605">
        <ele>90</ele>
        <time>2022-08-15T13:25:29+02:00</time>
      </trkpt>
      <trkpt lat="49.12719" lon="1.39607">
        <ele>90</ele>
        <time>2022-08-15T13:25:46+02:00</time>
      </trkpt>
      <trkpt lat="49.1272" lon="1.39607">
        <ele>90</ele>
        <time>2022-08-15T13:26:02+02:00</time>
      </trkpt>
      <trkpt lat="49.12729" lon="1.39616">
        <ele>90</ele>
        <time>2022-08-15T13:26:17+02:00</time>
      </trkpt>
      <trkpt lat="49.12737" lon="1.39625">
        <ele>91</ele>
        <time>2022-08-15T13:26:31+02:00</time>
      </trkpt>
      <trkpt lat="49.12746" lon="1.39636">
        <ele>91</ele>
        <time>2022-08-15T13:26:45+02:00</time>
      </trkpt>
      <trkpt lat="49.12757" lon="1.39652">
        <ele>92</ele>
        <time>2022-08-15T13:27:01+02:00</time>
      </trkpt>
      <trkpt lat="49.12763" lon="1.39661">
        <ele>93</ele>
        <time>2022-08-15T13:27:15+02:00</time>
      </trkpt>
      <trkpt lat="49.12771" lon="1.39678">
        <ele>94</ele>
        <time>2022-08-15T13:27:31+02:00</time>
      </trkpt>
      <trkpt lat="49.12777" lon="1.39697">
        <ele>94</ele>
        <time>2022-08-15T13:27:46+02:00</time>
      </trkpt>
      <trkpt lat="49.12774" lon="1.39709">
        <ele>93</ele>
        <time>2022-08-15T13:28:01+02:00</time>
      </trkpt>
      <trkpt lat="49.12778" lon="1.3972">
        <ele>94</ele>
        <time>2022-08-15T13:28:20+02:00</time>
      </trkpt>
      <trkpt lat="49.12784" lon="1.39735">
        <ele>94</ele>
        <time>2022-08-15T13:28:34+02:00</time>
      </trkpt>
      <trkpt lat="49.12789" lon="1.39751">
        <ele>94</ele>
        <time>2022-08-15T13:28:49+02:00</time>
      </trkpt>
      <trkpt lat="49.12794" lon="1.39765">
        <ele>94</ele>
        <time>2022-08-15T13:29:03+02:00</time>
      </trkpt>
      <trkpt lat="49.12801" lon="1.39781">
        <ele>94</ele>
        <time>2022-08-15T13:29:19+02:00</time>
      </trkpt>
      <trkpt lat="49.12814" lon="1.39801">
        <ele>95</ele>
        <time>2022-08-15T13:29:36+02:00</time>
      </trkpt>
      <trkpt lat="49.12822" lon="1.39815">
        <ele>95</ele>
        <time>2022-08-15T13:29:50+02:00</time>
      </trkpt>
      <trkpt lat="49.12822" lon="1.39817">
        <ele>95</ele>
        <time>2022-08-15T13:29:52+02:00</time>
      </trkpt>
      <trkpt lat="49.12833" lon="1.39829">
        <ele>96</ele>
        <time>2022-08-15T13:30:07+02:00</time>
      </trkpt>
      <trkpt lat="49.12835" lon="1.3983">
        <ele>96</ele>
        <time>2022-08-15T13:30:09+02:00</time>
      </trkpt>
      <trkpt lat="49.12845" lon="1.39843">
        <ele>97</ele>
        <time>2022-08-15T13:30:24+02:00</time>
      </trkpt>
      <trkpt lat="49.12855" lon="1.39856">
        <ele>97</ele>
        <time>2022-08-15T13:30:38+02:00</time>
      </trkpt>
      <trkpt lat="49.12867" lon="1.39871">
        <ele>97</ele>
        <time>2022-08-15T13:30:53+02:00</time>
      </trkpt>
      <trkpt lat="49.12883" lon="1.39893">
        <ele>97</ele>
        <time>2022-08-15T13:31:13+02:00</time>
      </trkpt>
      <trkpt lat="49.12898" lon="1.39913">
        <ele>96</ele>
        <time>2022-08-15T13:31:32+02:00</time>
      </trkpt>
      <trkpt lat="49.12915" lon="1.3993">
        <ele>96</ele>
        <time>2022-08-15T13:31:51+02:00</time>
      </trkpt>
      <trkpt lat="49.12931" lon="1.39945">
        <ele>95</ele>
        <time>2022-08-15T13:32:08+02:00</time>
      </trkpt>
      <trkpt lat="49.12938" lon="1.3995">
        <ele>94</ele>
        <time>2022-08-15T13:32:24+02:00</time>
      </trkpt>
      <trkpt lat="49.12875" lon="1.40129">
        <ele>75</ele>
        <time>2022-08-15T13:34:56+02:00</time>
      </trkpt>
      <trkpt lat="49.12866" lon="1.40173">
        <ele>70</ele>
        <time>2022-08-15T13:35:30+02:00</time>
      </trkpt>
      <trkpt lat="49.1283" lon="1.40234">
        <ele>57</ele>
        <time>2022-08-15T13:32:38+02:00</time>
      </trkpt>
      <trkpt lat="49.12815" lon="1.40226">
        <ele>56</ele>
        <time>2022-08-15T13:32:51+02:00</time>
      </trkpt>
      <trkpt lat="49.12794" lon="1.40216">
        <ele>54</ele>
        <time>2022-08-15T13:33:04+02:00</time>
      </trkpt>
      <trkpt lat="49.12763" lon="1.40235">
        <ele>47</ele>
        <time>2022-08-15T13:33:23+02:00</time>
      </trkpt>
      <trkpt lat="49.12798" lon="1.40275">
        <ele>46</ele>
        <time>2022-08-15T13:34:14+02:00</time>
      </trkpt>
      <trkpt lat="49.12834" lon="1.40305">
        <ele>46</ele>
        <time>2022-08-15T13:35:01+02:00</time>
      </trkpt>
      <trkpt lat="49.12879" lon="1.40331">
        <ele>48</ele>
        <time>2022-08-15T13:33:39+02:00</time>
      </trkpt>
      <trkpt lat="49.12985" lon="1.40405">
        <ele>54</ele>
        <time>2022-08-15T13:33:58+02:00</time>
      </trkpt>
      <trkpt lat="49.13032" lon="1.40426">
        <ele>53</ele>
        <time>2022-08-15T13:34:18+02:00</time>
      </trkpt>
      <trkpt lat="49.13064" lon="1.40429">
        <ele>53</ele>
        <time>2022-08-15T13:34:33+02:00</time>
      </trkpt>
      <trkpt lat="49.13101" lon="1.40413">
        <ele>54</ele>
        <time>2022-08-15T13:34:50+02:00</time>
      </trkpt>
      <trkpt lat="49.13121" lon="1.40408">
        <ele>53</ele>
        <time>2022-08-15T13:40:45+02:00</time>
      </trkpt>
      <trkpt lat="49.13136" lon="1.40407">
        <ele>53</ele>
        <time>2022-08-15T13:41:01+02:00</time>
      </trkpt>
      <trkpt lat="49.13156" lon="1.40396">
        <ele>53</ele>
        <time>2022-08-15T13:41:18+02:00</time>
      </trkpt>
      <trkpt lat="49.13167" lon="1.40407">
        <ele>51</ele>
        <time>2022-08-15T13:46:49+02:00</time>
      </trkpt>
      <trkpt lat="49.13171" lon="1.40413">
        <ele>50</ele>
        <time>2022-08-15T13:47:05+02:00</time>
      </trkpt>
      <trkpt lat="49.1317" lon="1.40436">
        <ele>47</ele>
        <time>2022-08-15T13:47:21+02:00</time>
      </trkpt>
      <trkpt lat="49.13174" lon="1.40437">
        <ele>47</ele>
        <time>2022-08-15T13:47:36+02:00</time>
      </trkpt>
      <trkpt lat="49.13183" lon="1.40434">
        <ele>47</ele>
        <time>2022-08-15T13:47:53+02:00</time>
      </trkpt>
      <trkpt lat="49.13187" lon="1.40433">
        <ele>47</ele>
        <time>2022-08-15T13:48:16+02:00</time>
      </trkpt>
      <trkpt lat="49.13196" lon="1.40429">
        <ele>46</ele>
        <time>2022-08-15T13:48:30+02:00</time>
      </trkpt>
      <trkpt lat="49.13207" lon="1.40431">
        <ele>46</ele>
        <time>2022-08-15T13:48:45+02:00</time>
      </trkpt>
      <trkpt lat="49.13216" lon="1.40438">
        <ele>44</ele>
        <time>2022-08-15T13:48:57+02:00</time>
      </trkpt>
      <trkpt lat="49.13221" lon="1.40442">
        <ele>43</ele>
        <time>2022-08-15T13:49:10+02:00</time>
      </trkpt>
      <trkpt lat="49.13234" lon="1.40448">
        <ele>42</ele>
        <time>2022-08-15T13:49:25+02:00</time>
      </trkpt>
      <trkpt lat="49.13246" lon="1.40451">
        <ele>41</ele>
        <time>2022-08-15T13:49:40+02:00</time>
      </trkpt>
      <trkpt lat="49.13251" lon="1.4045">
        <ele>41</ele>
        <time>2022-08-15T13:49:59+02:00</time>
      </trkpt>
      <trkpt lat="49.13259" lon="1.40451">
        <ele>41</ele>
        <time>2022-08-15T13:50:24+02:00</time>
      </trkpt>
      <trkpt lat="49.13266" lon="1.40454">
        <ele>41</ele>
        <time>2022-08-15T13:50:30+02:00</time>
      </trkpt>
      <trkpt lat="49.13281" lon="1.4046">
        <ele>41</ele>
        <time>2022-08-15T13:50:46+02:00</time>
      </trkpt>
      <trkpt lat="49.13282" lon="1.4046">
        <ele>41</ele>
        <time>2022-08-15T13:50:47+02:00</time>
      </trkpt>
      <trkpt lat="49.13296" lon="1.40466">
        <ele>41</ele>
        <time>2022-08-15T13:51:01+02:00</time>
      </trkpt>
      <trkpt lat="49.13308" lon="1.40468">
        <ele>42</ele>
        <time>2022-08-15T13:51:16+02:00</time>
      </trkpt>
      <trkpt lat="49.13319" lon="1.40473">
        <ele>42</ele>
        <time>2022-08-15T13:51:33+02:00</time>
      </trkpt>
      <trkpt lat="49.1333" lon="1.40476">
        <ele>42</ele>
        <time>2022-08-15T13:51:47+02:00</time>
      </trkpt>
      <trkpt lat="49.13332" lon="1.40476">
        <ele>42</ele>
        <time>2022-08-15T13:51:49+02:00</time>
      </trkpt>
      <trkpt lat="49.13344" lon="1.40482">
        <ele>43</ele>
        <time>2022-08-15T13:52:01+02:00</time>
      </trkpt>
      <trkpt lat="49.1334" lon="1.40502">
        <ele>40</ele>
        <time>2022-08-15T13:52:16+02:00</time>
      </trkpt>
      <trkpt lat="49.13342" lon="1.40516">
        <ele>39</ele>
        <time>2022-08-15T13:52:32+02:00</time>
      </trkpt>
      <trkpt lat="49.1335" lon="1.40518">
        <ele>39</ele>
        <time>2022-08-15T13:52:53+02:00</time>
      </trkpt>
      <trkpt lat="49.13361" lon="1.40527">
        <ele>39</ele>
        <time>2022-08-15T13:53:07+02:00</time>
      </trkpt>
      <trkpt lat="49.13374" lon="1.40533">
        <ele>39</ele>
        <time>2022-08-15T13:53:23+02:00</time>
      </trkpt>
      <trkpt lat="49.13384" lon="1.40536">
        <ele>40</ele>
        <time>2022-08-15T13:53:34+02:00</time>
      </trkpt>
      <trkpt lat="49.13398" lon="1.40542">
        <ele>40</ele>
        <time>2022-08-15T13:53:50+02:00</time>
      </trkpt>
      <trkpt lat="49.13408" lon="1.40547">
        <ele>40</ele>
        <time>2022-08-15T13:54:04+02:00</time>
      </trkpt>
      <trkpt lat="49.1342" lon="1.40553">
        <ele>40</ele>
        <time>2022-08-15T13:54:18+02:00</time>
      </trkpt>
      <trkpt lat="49.13432" lon="1.4056">
        <ele>39</ele>
        <time>2022-08-15T13:54:32+02:00</time>
      </trkpt>
      <trkpt lat="49.13439" lon="1.40565">
        <ele>39</ele>
        <time>2022-08-15T13:54:44+02:00</time>
      </trkpt>
      <trkpt lat="49.13452" lon="1.4057">
        <ele>39</ele>
        <time>2022-08-15T13:55:03+02:00</time>
      </trkpt>
      <trkpt lat="49.13464" lon="1.40578">
        <ele>38</ele>
        <time>2022-08-15T13:55:17+02:00</time>
      </trkpt>
      <trkpt lat="49.13485" lon="1.40587">
        <ele>38</ele>
        <time>2022-08-15T13:55:35+02:00</time>
      </trkpt>
      <trkpt lat="49.13501" lon="1.40599">
        <ele>37</ele>
        <time>2022-08-15T13:55:54+02:00</time>
      </trkpt>
      <trkpt lat="49.13514" lon="1.40612">
        <ele>35</ele>
        <time>2022-08-15T13:56:08+02:00</time>
      </trkpt>
      <trkpt lat="49.13529" lon="1.40622">
        <ele>34</ele>
        <time>2022-08-15T13:56:26+02:00</time>
      </trkpt>
      <trkpt lat="49.13543" lon="1.40631">
        <ele>32</ele>
        <time>2022-08-15T13:56:44+02:00</time>
      </trkpt>
      <trkpt lat="49.13556" lon="1.4064">
        <ele>31</ele>
        <time>2022-08-15T13:57:01+02:00</time>
      </trkpt>
      <trkpt lat="49.13561" lon="1.40642">
        <ele>31</ele>
        <time>2022-08-15T13:57:06+02:00</time>
      </trkpt>
      <trkpt lat="49.13569" lon="1.40646">
        <ele>30</ele>
        <time>2022-08-15T13:57:14+02:00</time>
      </trkpt>
      <trkpt lat="49.13584" lon="1.40656">
        <ele>29</ele>
        <time>2022-08-15T13:57:27+02:00</time>
      </trkpt>
      <trkpt lat="49.13592" lon="1.40662">
        <ele>29</ele>
        <time>2022-08-15T13:57:36+02:00</time>
      </trkpt>
      <trkpt lat="49.13608" lon="1.40676">
        <ele>29</ele>
        <time>2022-08-15T13:57:54+02:00</time>
      </trkpt>
      <trkpt lat="49.13617" lon="1.40694">
        <ele>29</ele>
        <time>2022-08-15T13:58:10+02:00</time>
      </trkpt>
      <trkpt lat="49.13629" lon="1.40704">
        <ele>29</ele>
        <time>2022-08-15T13:58:26+02:00</time>
      </trkpt>
      <trkpt lat="49.13643" lon="1.40717">
        <ele>29</ele>
        <time>2022-08-15T13:58:44+02:00</time>
      </trkpt>
      <trkpt lat="49.13656" lon="1.40729">
        <ele>28</ele>
        <time>2022-08-15T13:58:58+02:00</time>
      </trkpt>
      <trkpt lat="49.13667" lon="1.4074">
        <ele>27</ele>
        <time>2022-08-15T13:59:14+02:00</time>
      </trkpt>
      <trkpt lat="49.13668" lon="1.40741">
        <ele>27</ele>
        <time>2022-08-15T13:59:17+02:00</time>
      </trkpt>
      <trkpt lat="49.13682" lon="1.40755">
        <ele>28</ele>
        <time>2022-08-15T13:59:33+02:00</time>
      </trkpt>
      <trkpt lat="49.13698" lon="1.40772">
        <ele>29</ele>
        <time>2022-08-15T13:59:51+02:00</time>
      </trkpt>
      <trkpt lat="49.13714" lon="1.40787">
        <ele>30</ele>
        <time>2022-08-15T14:00:10+02:00</time>
      </trkpt>
      <trkpt lat="49.13727" lon="1.408">
        <ele>30</ele>
        <time>2022-08-15T14:00:27+02:00</time>
      </trkpt>
      <trkpt lat="49.13732" lon="1.40805">
        <ele>30</ele>
        <time>2022-08-15T14:00:33+02:00</time>
      </trkpt>
      <trkpt lat="49.13736" lon="1.4081">
        <ele>29</ele>
        <time>2022-08-15T14:00:38+02:00</time>
      </trkpt>
      <trkpt lat="49.13739" lon="1.40814">
        <ele>29</ele>
        <time>2022-08-15T14:00:42+02:00</time>
      </trkpt>
      <trkpt lat="49.13753" lon="1.40827">
        <ele>29</ele>
        <time>2022-08-15T14:00:58+02:00</time>
      </trkpt>
      <trkpt lat="49.13765" lon="1.40841">
        <ele>29</ele>
        <time>2022-08-15T14:01:13+02:00</time>
      </trkpt>
      <trkpt lat="49.13776" lon="1.40854">
        <ele>29</ele>
        <time>2022-08-15T14:01:30+02:00</time>
      </trkpt>
      <trkpt lat="49.13785" lon="1.40863">
        <ele>29</ele>
        <time>2022-08-15T14:01:45+02:00</time>
      </trkpt>
      <trkpt lat="49.13787" lon="1.40867">
        <ele>29</ele>
        <time>2022-08-15T14:02:02+02:00</time>
      </trkpt>
      <trkpt lat="49.13796" lon="1.40878">
        <ele>29</ele>
        <time>2022-08-15T14:02:13+02:00</time>
      </trkpt>
      <trkpt lat="49.13807" lon="1.4089">
        <ele>28</ele>
        <time>2022-08-15T14:02:27+02:00</time>
      </trkpt>
      <trkpt lat="49.13816" lon="1.40899">
        <ele>28</ele>
        <time>2022-08-15T14:02:43+02:00</time>
      </trkpt>
      <trkpt lat="49.13826" lon="1.40908">
        <ele>27</ele>
        <time>2022-08-15T14:02:56+02:00</time>
      </trkpt>
      <trkpt lat="49.13833" lon="1.40918">
        <ele>26</ele>
        <time>2022-08-15T14:03:13+02:00</time>
      </trkpt>
      <trkpt lat="49.13846" lon="1.40939">
        <ele>27</ele>
        <time>2022-08-15T14:03:32+02:00</time>
      </trkpt>
      <trkpt lat="49.13858" lon="1.40955">
        <ele>27</ele>
        <time>2022-08-15T14:03:46+02:00</time>
      </trkpt>
      <trkpt lat="49.13869" lon="1.40974">
        <ele>27</ele>
        <time>2022-08-15T14:04:01+02:00</time>
      </trkpt>
      <trkpt lat="49.13876" lon="1.4099">
        <ele>26</ele>
        <time>2022-08-15T14:04:15+02:00</time>
      </trkpt>
      <trkpt lat="49.13887" lon="1.41005">
        <ele>25</ele>
        <time>2022-08-15T14:04:29+02:00</time>
      </trkpt>
      <trkpt lat="49.13903" lon="1.41023">
        <ele>26</ele>
        <time>2022-08-15T14:04:48+02:00</time>
      </trkpt>
      <trkpt lat="49.1391" lon="1.41033">
        <ele>25</ele>
        <time>2022-08-15T14:05:03+02:00</time>
      </trkpt>
      <trkpt lat="49.13926" lon="1.41047">
        <ele>25</ele>
        <time>2022-08-15T14:05:20+02:00</time>
      </trkpt>
      <trkpt lat="49.13939" lon="1.41064">
        <ele>25</ele>
        <time>2022-08-15T14:05:38+02:00</time>
      </trkpt>
      <trkpt lat="49.13949" lon="1.41074">
        <ele>25</ele>
        <time>2022-08-15T14:05:52+02:00</time>
      </trkpt>
      <trkpt lat="49.13959" lon="1.41084">
        <ele>24</ele>
        <time>2022-08-15T14:06:07+02:00</time>
      </trkpt>
      <trkpt lat="49.13975" lon="1.41099">
        <ele>24</ele>
        <time>2022-08-15T14:06:25+02:00</time>
      </trkpt>
      <trkpt lat="49.13988" lon="1.41113">
        <ele>24</ele>
        <time>2022-08-15T14:06:45+02:00</time>
      </trkpt>
      <trkpt lat="49.13996" lon="1.41122">
        <ele>23</ele>
        <time>2022-08-15T14:07:00+02:00</time>
      </trkpt>
      <trkpt lat="49.14013" lon="1.41138">
        <ele>23</ele>
        <time>2022-08-15T14:07:19+02:00</time>
      </trkpt>
      <trkpt lat="49.14014" lon="1.41138">
        <ele>23</ele>
        <time>2022-08-15T14:07:36+02:00</time>
      </trkpt>
      <trkpt lat="49.14025" lon="1.4115">
        <ele>23</ele>
        <time>2022-08-15T14:07:59+02:00</time>
      </trkpt>
      <trkpt lat="49.14042" lon="1.4116">
        <ele>23</ele>
        <time>2022-08-15T14:08:14+02:00</time>
      </trkpt>
      <trkpt lat="49.14045" lon="1.41163">
        <ele>22</ele>
        <time>2022-08-15T14:08:28+02:00</time>
      </trkpt>
      <trkpt lat="49.14049" lon="1.41167">
        <ele>22</ele>
        <time>2022-08-15T14:08:33+02:00</time>
      </trkpt>
      <trkpt lat="49.14063" lon="1.4118">
        <ele>23</ele>
        <time>2022-08-15T14:08:48+02:00</time>
      </trkpt>
      <trkpt lat="49.14077" lon="1.41192">
        <ele>23</ele>
        <time>2022-08-15T14:09:06+02:00</time>
      </trkpt>
      <trkpt lat="49.14089" lon="1.41202">
        <ele>22</ele>
        <time>2022-08-15T14:09:21+02:00</time>
      </trkpt>
      <trkpt lat="49.14101" lon="1.41214">
        <ele>22</ele>
        <time>2022-08-15T14:09:37+02:00</time>
      </trkpt>
      <trkpt lat="49.14121" lon="1.41235">
        <ele>21</ele>
        <time>2022-08-15T14:09:54+02:00</time>
      </trkpt>
      <trkpt lat="49.14139" lon="1.41252">
        <ele>21</ele>
        <time>2022-08-15T14:10:11+02:00</time>
      </trkpt>
      <trkpt lat="49.14149" lon="1.41266">
        <ele>21</ele>
        <time>2022-08-15T14:10:27+02:00</time>
      </trkpt>
      <trkpt lat="49.1416" lon="1.4128">
        <ele>20</ele>
        <time>2022-08-15T14:10:42+02:00</time>
      </trkpt>
      <trkpt lat="49.14162" lon="1.41283">
        <ele>20</ele>
        <time>2022-08-15T14:10:44+02:00</time>
      </trkpt>
      <trkpt lat="49.14163" lon="1.41285">
        <ele>20</ele>
        <time>2022-08-15T14:10:46+02:00</time>
      </trkpt>
      <trkpt lat="49.14166" lon="1.41287">
        <ele>20</ele>
        <time>2022-08-15T14:10:50+02:00</time>
      </trkpt>
      <trkpt lat="49.1417" lon="1.41291">
        <ele>20</ele>
        <time>2022-08-15T14:10:55+02:00</time>
      </trkpt>
      <trkpt lat="49.1418" lon="1.41287">
        <ele>20</ele>
        <time>2022-08-15T14:11:10+02:00</time>
      </trkpt>
      <trkpt lat="49.14186" lon="1.41281">
        <ele>20</ele>
        <time>2022-08-15T14:11:23+02:00</time>
      </trkpt>
      <trkpt lat="49.14196" lon="1.41267">
        <ele>21</ele>
        <time>2022-08-15T14:11:41+02:00</time>
      </trkpt>
      <trkpt lat="49.14201" lon="1.41256">
        <ele>21</ele>
        <time>2022-08-15T14:11:58+02:00</time>
      </trkpt>
      <trkpt lat="49.14207" lon="1.41244">
        <ele>22</ele>
        <time>2022-08-15T14:12:12+02:00</time>
      </trkpt>
      <trkpt lat="49.14214" lon="1.41239">
        <ele>23</ele>
        <time>2022-08-15T14:12:20+02:00</time>
      </trkpt>
      <trkpt lat="49.1424" lon="1.41252">
        <ele>22</ele>
        <time>2022-08-15T14:12:35+02:00</time>
      </trkpt>
      <trkpt lat="49.14249" lon="1.41275">
        <ele>21</ele>
        <time>2022-08-15T14:12:52+02:00</time>
      </trkpt>
      <trkpt lat="49.14256" lon="1.41296">
        <ele>21</ele>
        <time>2022-08-15T14:13:10+02:00</time>
      </trkpt>
      <trkpt lat="49.1426" lon="1.41305">
        <ele>20</ele>
        <time>2022-08-15T14:13:22+02:00</time>
      </trkpt>
      <trkpt lat="49.14265" lon="1.41323">
        <ele>20</ele>
        <time>2022-08-15T14:13:37+02:00</time>
      </trkpt>
      <trkpt lat="49.14268" lon="1.4133">
        <ele>20</ele>
        <time>2022-08-15T14:13:43+02:00</time>
      </trkpt>
      <trkpt lat="49.14273" lon="1.41342">
        <ele>19</ele>
        <time>2022-08-15T14:13:58+02:00</time>
      </trkpt>
      <trkpt lat="49.14275" lon="1.41346">
        <ele>19</ele>
        <time>2022-08-15T14:14:02+02:00</time>
      </trkpt>
      <trkpt lat="49.14275" lon="1.41359">
        <ele>19</ele>
        <time>2022-08-15T14:14:10+02:00</time>
      </trkpt>
      <trkpt lat="49.14275" lon="1.41362">
        <ele>19</ele>
        <time>2022-08-15T14:14:12+02:00</time>
      </trkpt>
      <trkpt lat="49.1428" lon="1.41374">
        <ele>19</ele>
        <time>2022-08-15T14:14:22+02:00</time>
      </trkpt>
      <trkpt lat="49.14284" lon="1.41374">
        <ele>19</ele>
        <time>2022-08-15T14:14:26+02:00</time>
      </trkpt>
      <trkpt lat="49.14289" lon="1.41372">
        <ele>19</ele>
        <time>2022-08-15T14:14:32+02:00</time>
      </trkpt>
      <trkpt lat="49.14303" lon="1.414">
        <ele>18</ele>
        <time>2022-08-15T14:14:50+02:00</time>
      </trkpt>
      <trkpt lat="49.1431" lon="1.41415">
        <ele>18</ele>
        <time>2022-08-15T14:15:01+02:00</time>
      </trkpt>
      <trkpt lat="49.1432" lon="1.41437">
        <ele>18</ele>
        <time>2022-08-15T14:15:18+02:00</time>
      </trkpt>
      <trkpt lat="49.1432" lon="1.4144">
        <ele>18</ele>
        <time>2022-08-15T14:15:20+02:00</time>
      </trkpt>
      <trkpt lat="49.14322" lon="1.41444">
        <ele>18</ele>
        <time>2022-08-15T14:15:23+02:00</time>
      </trkpt>
      <trkpt lat="49.14332" lon="1.41469">
        <ele>17</ele>
        <time>2022-08-15T14:15:42+02:00</time>
      </trkpt>
      <trkpt lat="49.14343" lon="1.41492">
        <ele>17</ele>
        <time>2022-08-15T14:15:59+02:00</time>
      </trkpt>
      <trkpt lat="49.14352" lon="1.41503">
        <ele>17</ele>
        <time>2022-08-15T14:16:14+02:00</time>
      </trkpt>
      <trkpt lat="49.14353" lon="1.41507">
        <ele>17</ele>
        <time>2022-08-15T14:16:27+02:00</time>
      </trkpt>
      <trkpt lat="49.14359" lon="1.41522">
        <ele>16</ele>
        <time>2022-08-15T14:16:41+02:00</time>
      </trkpt>
      <trkpt lat="49.14366" lon="1.41539">
        <ele>16</ele>
        <time>2022-08-15T14:16:56+02:00</time>
      </trkpt>
      <trkpt lat="49.14371" lon="1.41552">
        <ele>16</ele>
        <time>2022-08-15T14:17:07+02:00</time>
      </trkpt>
      <trkpt lat="49.14377" lon="1.41567">
        <ele>16</ele>
        <time>2022-08-15T14:17:21+02:00</time>
      </trkpt>
      <trkpt lat="49.14385" lon="1.41587">
        <ele>15</ele>
        <time>2022-08-15T14:17:37+02:00</time>
      </trkpt>
      <trkpt lat="49.14394" lon="1.41605">
        <ele>16</ele>
        <time>2022-08-15T14:17:51+02:00</time>
      </trkpt>
      <trkpt lat="49.14394" lon="1.41621">
        <ele>16</ele>
        <time>2022-08-15T14:18:06+02:00</time>
      </trkpt>
      <trkpt lat="49.14382" lon="1.4163">
        <ele>16</ele>
        <time>2022-08-15T14:18:19+02:00</time>
      </trkpt>
      <trkpt lat="49.14367" lon="1.41642">
        <ele>16</ele>
        <time>2022-08-15T14:18:35+02:00</time>
      </trkpt>
      <trkpt lat="49.14356" lon="1.41649">
        <ele>16</ele>
        <time>2022-08-15T14:18:48+02:00</time>
      </trkpt>
      <trkpt lat="49.14339" lon="1.4166">
        <ele>16</ele>
        <time>2022-08-15T14:19:05+02:00</time>
      </trkpt>
      <trkpt lat="49.14326" lon="1.41667">
        <ele>16</ele>
        <time>2022-08-15T14:19:21+02:00</time>
      </trkpt>
      <trkpt lat="49.14309" lon="1.41678">
        <ele>16</ele>
        <time>2022-08-15T14:19:40+02:00</time>
      </trkpt>
      <trkpt lat="49.14295" lon="1.41685">
        <ele>16</ele>
        <time>2022-08-15T14:19:57+02:00</time>
      </trkpt>
      <trkpt lat="49.14284" lon="1.41689">
        <ele>16</ele>
        <time>2022-08-15T14:20:14+02:00</time>
      </trkpt>
      <trkpt lat="49.14282" lon="1.41691">
        <ele>16</ele>
        <time>2022-08-15T15:08:45+02:00</time>
      </trkpt>
      <trkpt lat="49.14276" lon="1.41691">
        <ele>16</ele>
        <time>2022-08-15T15:09:24+02:00</time>
      </trkpt>
      <trkpt lat="49.14273" lon="1.41694">
        <ele>16</ele>
        <time>2022-08-15T15:09:27+02:00</time>
      </trkpt>
      <trkpt lat="49.14257" lon="1.41704">
        <ele>16</ele>
        <time>2022-08-15T15:09:44+02:00</time>
      </trkpt>
      <trkpt lat="49.14243" lon="1.41713">
        <ele>16</ele>
        <time>2022-08-15T15:10:00+02:00</time>
      </trkpt>
      <trkpt lat="49.14228" lon="1.4172">
        <ele>16</ele>
        <time>2022-08-15T15:10:16+02:00</time>
      </trkpt>
      <trkpt lat="49.14211" lon="1.41728">
        <ele>16</ele>
        <time>2022-08-15T15:10:32+02:00</time>
      </trkpt>
      <trkpt lat="49.14195" lon="1.41739">
        <ele>16</ele>
        <time>2022-08-15T15:10:49+02:00</time>
      </trkpt>
      <trkpt lat="49.14178" lon="1.41753">
        <ele>16</ele>
        <time>2022-08-15T15:11:06+02:00</time>
      </trkpt>
      <trkpt lat="49.14162" lon="1.41769">
        <ele>17</ele>
        <time>2022-08-15T15:11:23+02:00</time>
      </trkpt>
      <trkpt lat="49.14148" lon="1.41786">
        <ele>18</ele>
        <time>2022-08-15T15:11:39+02:00</time>
      </trkpt>
      <trkpt lat="49.14134" lon="1.41798">
        <ele>18</ele>
        <time>2022-08-15T15:11:55+02:00</time>
      </trkpt>
      <trkpt lat="49.14121" lon="1.41787">
        <ele>20</ele>
        <time>2022-08-15T15:12:15+02:00</time>
      </trkpt>
      <trkpt lat="49.14118" lon="1.41763">
        <ele>22</ele>
        <time>2022-08-15T15:12:20+02:00</time>
      </trkpt>
      <trkpt lat="49.14117" lon="1.4175">
        <ele>23</ele>
        <time>2022-08-15T15:12:34+02:00</time>
      </trkpt>
      <trkpt lat="49.14117" lon="1.41735">
        <ele>24</ele>
        <time>2022-08-15T15:12:49+02:00</time>
      </trkpt>
      <trkpt lat="49.14125" lon="1.41723">
        <ele>23</ele>
        <time>2022-08-15T15:13:03+02:00</time>
      </trkpt>
      <trkpt lat="49.14132" lon="1.41697">
        <ele>23</ele>
        <time>2022-08-15T15:13:16+02:00</time>
      </trkpt>
      <trkpt lat="49.14133" lon="1.41684">
        <ele>23</ele>
        <time>2022-08-15T15:13:22+02:00</time>
      </trkpt>
      <trkpt lat="49.14145" lon="1.41662">
        <ele>21</ele>
        <time>2022-08-15T15:13:38+02:00</time>
      </trkpt>
      <trkpt lat="49.1415" lon="1.4166">
        <ele>20</ele>
        <time>2022-08-15T15:13:44+02:00</time>
      </trkpt>
      <trkpt lat="49.14156" lon="1.41665">
        <ele>19</ele>
        <time>2022-08-15T15:13:58+02:00</time>
      </trkpt>
    </trkseg>
  </trk>
</gpx>